<?xml version="1.0" encoding="UTF-8" standalone="no" ?>
<gpx xmlns="http://www.topografix.com/GPX/1/1" xmlns:xsi="http://www.w3.org/2001/XMLSchema-instance" xsi:schemaLocation="http://www.topografix.com/GPX/1/1 http://www.topografix.com/GPX/1/1/gpx.xsd" version="1.1" creator="VisuGPX - https://www.visugpx.com">
  <metadata>
    <name>Plateau de Ganagobie, Prieuré 27/11/2024</name>
    <desc><![CDATA[Boucle de 11 km, dénivelé cumulé 300m au départ de Peyruis]]></desc>
  </metadata>
  <wpt lat="44.02457" lon="5.93468">
    <ele>408.9</ele>
    <name><![CDATA[]]></name>
  </wpt>
  <wpt lat="44.02461" lon="5.93456">
    <ele>409.1</ele>
    <name><![CDATA[]]></name>
  </wpt>
  <trk>
    <name><![CDATA[Randonnée du 27/11/2024 à 09:46]]></name>
    <trkseg>
      <trkpt lat="44.02457" lon="5.93468">
        <ele>408.9</ele>
        <time>2024-11-27T09:46:33+01:00</time>
      </trkpt>
      <trkpt lat="44.02458" lon="5.93468">
        <ele>409</ele>
        <time>2024-11-27T09:46:36+01:00</time>
      </trkpt>
      <trkpt lat="44.02464" lon="5.93467">
        <ele>409.3</ele>
        <time>2024-11-27T09:47:16+01:00</time>
      </trkpt>
      <trkpt lat="44.02464" lon="5.93456">
        <ele>409.2</ele>
        <time>2024-11-27T09:55:01+01:00</time>
      </trkpt>
      <trkpt lat="44.02469" lon="5.93446">
        <ele>409</ele>
        <time>2024-11-27T09:55:16+01:00</time>
      </trkpt>
      <trkpt lat="44.02464" lon="5.93434">
        <ele>409.1</ele>
        <time>2024-11-27T09:55:28+01:00</time>
      </trkpt>
      <trkpt lat="44.02456" lon="5.93425">
        <ele>408.9</ele>
        <time>2024-11-27T09:55:36+01:00</time>
      </trkpt>
      <trkpt lat="44.02451" lon="5.93415">
        <ele>408.5</ele>
        <time>2024-11-27T09:56:52+01:00</time>
      </trkpt>
      <trkpt lat="44.02443" lon="5.93406">
        <ele>407.9</ele>
        <time>2024-11-27T09:59:04+01:00</time>
      </trkpt>
      <trkpt lat="44.02436" lon="5.93395">
        <ele>407.2</ele>
        <time>2024-11-27T09:59:13+01:00</time>
      </trkpt>
      <trkpt lat="44.02432" lon="5.93384">
        <ele>406</ele>
        <time>2024-11-27T09:59:22+01:00</time>
      </trkpt>
      <trkpt lat="44.02427" lon="5.93372">
        <ele>404</ele>
        <time>2024-11-27T09:59:30+01:00</time>
      </trkpt>
      <trkpt lat="44.02424" lon="5.93359">
        <ele>403</ele>
        <time>2024-11-27T09:59:40+01:00</time>
      </trkpt>
      <trkpt lat="44.02423" lon="5.93345">
        <ele>405.5</ele>
        <time>2024-11-27T09:59:49+01:00</time>
      </trkpt>
      <trkpt lat="44.02422" lon="5.93331">
        <ele>407.8</ele>
        <time>2024-11-27T09:59:57+01:00</time>
      </trkpt>
      <trkpt lat="44.02421" lon="5.93316">
        <ele>407.9</ele>
        <time>2024-11-27T10:00:07+01:00</time>
      </trkpt>
      <trkpt lat="44.02418" lon="5.93302">
        <ele>408</ele>
        <time>2024-11-27T10:00:16+01:00</time>
      </trkpt>
      <trkpt lat="44.02413" lon="5.93288">
        <ele>407.8</ele>
        <time>2024-11-27T10:00:25+01:00</time>
      </trkpt>
      <trkpt lat="44.02409" lon="5.93274">
        <ele>408.1</ele>
        <time>2024-11-27T10:00:34+01:00</time>
      </trkpt>
      <trkpt lat="44.02406" lon="5.9326">
        <ele>408.7</ele>
        <time>2024-11-27T10:00:43+01:00</time>
      </trkpt>
      <trkpt lat="44.02403" lon="5.93246">
        <ele>409</ele>
        <time>2024-11-27T10:00:52+01:00</time>
      </trkpt>
      <trkpt lat="44.02399" lon="5.93233">
        <ele>409</ele>
        <time>2024-11-27T10:01:04+01:00</time>
      </trkpt>
      <trkpt lat="44.02396" lon="5.9322">
        <ele>409</ele>
        <time>2024-11-27T10:01:13+01:00</time>
      </trkpt>
      <trkpt lat="44.02394" lon="5.93207">
        <ele>409.1</ele>
        <time>2024-11-27T10:01:22+01:00</time>
      </trkpt>
      <trkpt lat="44.02392" lon="5.93194">
        <ele>409.1</ele>
        <time>2024-11-27T10:01:31+01:00</time>
      </trkpt>
      <trkpt lat="44.02387" lon="5.93179">
        <ele>409.5</ele>
        <time>2024-11-27T10:01:39+01:00</time>
      </trkpt>
      <trkpt lat="44.02381" lon="5.93165">
        <ele>409.7</ele>
        <time>2024-11-27T10:01:49+01:00</time>
      </trkpt>
      <trkpt lat="44.02374" lon="5.93152">
        <ele>409.5</ele>
        <time>2024-11-27T10:01:57+01:00</time>
      </trkpt>
      <trkpt lat="44.02366" lon="5.9314">
        <ele>409.2</ele>
        <time>2024-11-27T10:02:07+01:00</time>
      </trkpt>
      <trkpt lat="44.02359" lon="5.93129">
        <ele>408.9</ele>
        <time>2024-11-27T10:02:16+01:00</time>
      </trkpt>
      <trkpt lat="44.02352" lon="5.93119">
        <ele>408.6</ele>
        <time>2024-11-27T10:02:25+01:00</time>
      </trkpt>
      <trkpt lat="44.02346" lon="5.93107">
        <ele>408.7</ele>
        <time>2024-11-27T10:02:40+01:00</time>
      </trkpt>
      <trkpt lat="44.02344" lon="5.93096">
        <ele>409.4</ele>
        <time>2024-11-27T10:02:58+01:00</time>
      </trkpt>
      <trkpt lat="44.02338" lon="5.93088">
        <ele>409.3</ele>
        <time>2024-11-27T10:03:19+01:00</time>
      </trkpt>
      <trkpt lat="44.02327" lon="5.93085">
        <ele>408.5</ele>
        <time>2024-11-27T10:03:28+01:00</time>
      </trkpt>
      <trkpt lat="44.02317" lon="5.93081">
        <ele>408.3</ele>
        <time>2024-11-27T10:03:36+01:00</time>
      </trkpt>
      <trkpt lat="44.02308" lon="5.93077">
        <ele>408</ele>
        <time>2024-11-27T10:03:46+01:00</time>
      </trkpt>
      <trkpt lat="44.02297" lon="5.93072">
        <ele>408.1</ele>
        <time>2024-11-27T10:03:55+01:00</time>
      </trkpt>
      <trkpt lat="44.02287" lon="5.93067">
        <ele>408.1</ele>
        <time>2024-11-27T10:04:04+01:00</time>
      </trkpt>
      <trkpt lat="44.02278" lon="5.93061">
        <ele>408.2</ele>
        <time>2024-11-27T10:04:13+01:00</time>
      </trkpt>
      <trkpt lat="44.02269" lon="5.93055">
        <ele>407.9</ele>
        <time>2024-11-27T10:04:22+01:00</time>
      </trkpt>
      <trkpt lat="44.02261" lon="5.93049">
        <ele>407.6</ele>
        <time>2024-11-27T10:04:31+01:00</time>
      </trkpt>
      <trkpt lat="44.02252" lon="5.93043">
        <ele>407.5</ele>
        <time>2024-11-27T10:04:40+01:00</time>
      </trkpt>
      <trkpt lat="44.02244" lon="5.93037">
        <ele>408</ele>
        <time>2024-11-27T10:04:49+01:00</time>
      </trkpt>
      <trkpt lat="44.02234" lon="5.93032">
        <ele>408.7</ele>
        <time>2024-11-27T10:04:58+01:00</time>
      </trkpt>
      <trkpt lat="44.02226" lon="5.93028">
        <ele>409.1</ele>
        <time>2024-11-27T10:05:04+01:00</time>
      </trkpt>
      <trkpt lat="44.02217" lon="5.93023">
        <ele>409</ele>
        <time>2024-11-27T10:05:13+01:00</time>
      </trkpt>
      <trkpt lat="44.0221" lon="5.93015">
        <ele>409.4</ele>
        <time>2024-11-27T10:05:22+01:00</time>
      </trkpt>
      <trkpt lat="44.02201" lon="5.93009">
        <ele>409</ele>
        <time>2024-11-27T10:05:34+01:00</time>
      </trkpt>
      <trkpt lat="44.02192" lon="5.93005">
        <ele>408.4</ele>
        <time>2024-11-27T10:05:43+01:00</time>
      </trkpt>
      <trkpt lat="44.02183" lon="5.93002">
        <ele>407.1</ele>
        <time>2024-11-27T10:05:52+01:00</time>
      </trkpt>
      <trkpt lat="44.02173" lon="5.92996">
        <ele>406.6</ele>
        <time>2024-11-27T10:06:01+01:00</time>
      </trkpt>
      <trkpt lat="44.02164" lon="5.92989">
        <ele>406.1</ele>
        <time>2024-11-27T10:06:10+01:00</time>
      </trkpt>
      <trkpt lat="44.02155" lon="5.92982">
        <ele>406.4</ele>
        <time>2024-11-27T10:06:18+01:00</time>
      </trkpt>
      <trkpt lat="44.02145" lon="5.92976">
        <ele>406.4</ele>
        <time>2024-11-27T10:06:28+01:00</time>
      </trkpt>
      <trkpt lat="44.02136" lon="5.9297">
        <ele>406.6</ele>
        <time>2024-11-27T10:06:37+01:00</time>
      </trkpt>
      <trkpt lat="44.02126" lon="5.92968">
        <ele>406.3</ele>
        <time>2024-11-27T10:06:46+01:00</time>
      </trkpt>
      <trkpt lat="44.02115" lon="5.92966">
        <ele>405.4</ele>
        <time>2024-11-27T10:06:55+01:00</time>
      </trkpt>
      <trkpt lat="44.02106" lon="5.92964">
        <ele>404.8</ele>
        <time>2024-11-27T10:07:04+01:00</time>
      </trkpt>
      <trkpt lat="44.02097" lon="5.92963">
        <ele>404.7</ele>
        <time>2024-11-27T10:07:10+01:00</time>
      </trkpt>
      <trkpt lat="44.02087" lon="5.92958">
        <ele>405.3</ele>
        <time>2024-11-27T10:07:18+01:00</time>
      </trkpt>
      <trkpt lat="44.02078" lon="5.92954">
        <ele>405.3</ele>
        <time>2024-11-27T10:07:28+01:00</time>
      </trkpt>
      <trkpt lat="44.02068" lon="5.92947">
        <ele>404.8</ele>
        <time>2024-11-27T10:07:37+01:00</time>
      </trkpt>
      <trkpt lat="44.0206" lon="5.92941">
        <ele>404.6</ele>
        <time>2024-11-27T10:07:46+01:00</time>
      </trkpt>
      <trkpt lat="44.0205" lon="5.92935">
        <ele>404.8</ele>
        <time>2024-11-27T10:07:55+01:00</time>
      </trkpt>
      <trkpt lat="44.02041" lon="5.92929">
        <ele>405.9</ele>
        <time>2024-11-27T10:08:04+01:00</time>
      </trkpt>
      <trkpt lat="44.02032" lon="5.92922">
        <ele>406.6</ele>
        <time>2024-11-27T10:08:16+01:00</time>
      </trkpt>
      <trkpt lat="44.02023" lon="5.92918">
        <ele>406.5</ele>
        <time>2024-11-27T10:08:25+01:00</time>
      </trkpt>
      <trkpt lat="44.02014" lon="5.92912">
        <ele>406.6</ele>
        <time>2024-11-27T10:08:34+01:00</time>
      </trkpt>
      <trkpt lat="44.02005" lon="5.92906">
        <ele>406.1</ele>
        <time>2024-11-27T10:08:43+01:00</time>
      </trkpt>
      <trkpt lat="44.01997" lon="5.929">
        <ele>406.1</ele>
        <time>2024-11-27T10:08:52+01:00</time>
      </trkpt>
      <trkpt lat="44.0199" lon="5.92892">
        <ele>408</ele>
        <time>2024-11-27T10:09:05+01:00</time>
      </trkpt>
      <trkpt lat="44.01981" lon="5.92891">
        <ele>408.2</ele>
        <time>2024-11-27T10:09:14+01:00</time>
      </trkpt>
      <trkpt lat="44.01972" lon="5.92893">
        <ele>407.5</ele>
        <time>2024-11-27T10:09:23+01:00</time>
      </trkpt>
      <trkpt lat="44.01963" lon="5.92894">
        <ele>404.2</ele>
        <time>2024-11-27T10:09:32+01:00</time>
      </trkpt>
      <trkpt lat="44.01955" lon="5.92887">
        <ele>403.5</ele>
        <time>2024-11-27T10:09:41+01:00</time>
      </trkpt>
      <trkpt lat="44.0195" lon="5.92877">
        <ele>405.6</ele>
        <time>2024-11-27T10:09:49+01:00</time>
      </trkpt>
      <trkpt lat="44.01943" lon="5.92867">
        <ele>407.3</ele>
        <time>2024-11-27T10:09:59+01:00</time>
      </trkpt>
      <trkpt lat="44.01935" lon="5.9286">
        <ele>406.8</ele>
        <time>2024-11-27T10:10:08+01:00</time>
      </trkpt>
      <trkpt lat="44.01927" lon="5.92852">
        <ele>406.7</ele>
        <time>2024-11-27T10:10:17+01:00</time>
      </trkpt>
      <trkpt lat="44.01918" lon="5.92844">
        <ele>406.1</ele>
        <time>2024-11-27T10:10:26+01:00</time>
      </trkpt>
      <trkpt lat="44.0191" lon="5.92836">
        <ele>406.5</ele>
        <time>2024-11-27T10:10:35+01:00</time>
      </trkpt>
      <trkpt lat="44.01902" lon="5.92829">
        <ele>406.7</ele>
        <time>2024-11-27T10:10:44+01:00</time>
      </trkpt>
      <trkpt lat="44.01892" lon="5.92822">
        <ele>405.9</ele>
        <time>2024-11-27T10:10:56+01:00</time>
      </trkpt>
      <trkpt lat="44.01883" lon="5.92815">
        <ele>406.1</ele>
        <time>2024-11-27T10:11:05+01:00</time>
      </trkpt>
      <trkpt lat="44.01873" lon="5.92809">
        <ele>406.4</ele>
        <time>2024-11-27T10:11:14+01:00</time>
      </trkpt>
      <trkpt lat="44.01863" lon="5.92805">
        <ele>405.6</ele>
        <time>2024-11-27T10:11:23+01:00</time>
      </trkpt>
      <trkpt lat="44.01854" lon="5.928">
        <ele>405.3</ele>
        <time>2024-11-27T10:11:32+01:00</time>
      </trkpt>
      <trkpt lat="44.01846" lon="5.92795">
        <ele>405.6</ele>
        <time>2024-11-27T10:11:41+01:00</time>
      </trkpt>
      <trkpt lat="44.01837" lon="5.92791">
        <ele>405.4</ele>
        <time>2024-11-27T10:11:50+01:00</time>
      </trkpt>
      <trkpt lat="44.01827" lon="5.92787">
        <ele>405.7</ele>
        <time>2024-11-27T10:12:02+01:00</time>
      </trkpt>
      <trkpt lat="44.01818" lon="5.92782">
        <ele>406.5</ele>
        <time>2024-11-27T10:12:11+01:00</time>
      </trkpt>
      <trkpt lat="44.01809" lon="5.92777">
        <ele>407.7</ele>
        <time>2024-11-27T10:12:20+01:00</time>
      </trkpt>
      <trkpt lat="44.01801" lon="5.9277">
        <ele>406.5</ele>
        <time>2024-11-27T10:12:29+01:00</time>
      </trkpt>
      <trkpt lat="44.01794" lon="5.92758">
        <ele>406.9</ele>
        <time>2024-11-27T10:12:38+01:00</time>
      </trkpt>
      <trkpt lat="44.01786" lon="5.92747">
        <ele>407.5</ele>
        <time>2024-11-27T10:12:47+01:00</time>
      </trkpt>
      <trkpt lat="44.01778" lon="5.92737">
        <ele>407.5</ele>
        <time>2024-11-27T10:12:58+01:00</time>
      </trkpt>
      <trkpt lat="44.01771" lon="5.92726">
        <ele>407.2</ele>
        <time>2024-11-27T10:13:08+01:00</time>
      </trkpt>
      <trkpt lat="44.01766" lon="5.92713">
        <ele>407.6</ele>
        <time>2024-11-27T10:13:17+01:00</time>
      </trkpt>
      <trkpt lat="44.01763" lon="5.927">
        <ele>408.1</ele>
        <time>2024-11-27T10:13:26+01:00</time>
      </trkpt>
      <trkpt lat="44.01757" lon="5.92689">
        <ele>408</ele>
        <time>2024-11-27T10:13:35+01:00</time>
      </trkpt>
      <trkpt lat="44.01749" lon="5.92679">
        <ele>407.8</ele>
        <time>2024-11-27T10:13:44+01:00</time>
      </trkpt>
      <trkpt lat="44.01742" lon="5.92671">
        <ele>407.9</ele>
        <time>2024-11-27T10:13:50+01:00</time>
      </trkpt>
      <trkpt lat="44.01734" lon="5.92661">
        <ele>408.1</ele>
        <time>2024-11-27T10:13:58+01:00</time>
      </trkpt>
      <trkpt lat="44.01725" lon="5.92652">
        <ele>407.5</ele>
        <time>2024-11-27T10:14:08+01:00</time>
      </trkpt>
      <trkpt lat="44.01717" lon="5.92643">
        <ele>407.3</ele>
        <time>2024-11-27T10:14:17+01:00</time>
      </trkpt>
      <trkpt lat="44.01709" lon="5.92634">
        <ele>406.8</ele>
        <time>2024-11-27T10:14:29+01:00</time>
      </trkpt>
      <trkpt lat="44.017" lon="5.92625">
        <ele>406.7</ele>
        <time>2024-11-27T10:14:38+01:00</time>
      </trkpt>
      <trkpt lat="44.01692" lon="5.92614">
        <ele>407.5</ele>
        <time>2024-11-27T10:14:50+01:00</time>
      </trkpt>
      <trkpt lat="44.01684" lon="5.92604">
        <ele>407.6</ele>
        <time>2024-11-27T10:14:58+01:00</time>
      </trkpt>
      <trkpt lat="44.01676" lon="5.92597">
        <ele>407.3</ele>
        <time>2024-11-27T10:15:08+01:00</time>
      </trkpt>
      <trkpt lat="44.01667" lon="5.92589">
        <ele>407.3</ele>
        <time>2024-11-27T10:15:17+01:00</time>
      </trkpt>
      <trkpt lat="44.01658" lon="5.92577">
        <ele>407.9</ele>
        <time>2024-11-27T10:15:26+01:00</time>
      </trkpt>
      <trkpt lat="44.01651" lon="5.92567">
        <ele>407.9</ele>
        <time>2024-11-27T10:15:35+01:00</time>
      </trkpt>
      <trkpt lat="44.01645" lon="5.92557">
        <ele>407.6</ele>
        <time>2024-11-27T10:15:44+01:00</time>
      </trkpt>
      <trkpt lat="44.01638" lon="5.92546">
        <ele>407.4</ele>
        <time>2024-11-27T10:15:53+01:00</time>
      </trkpt>
      <trkpt lat="44.01632" lon="5.92537">
        <ele>407.8</ele>
        <time>2024-11-27T10:16:02+01:00</time>
      </trkpt>
      <trkpt lat="44.01626" lon="5.92528">
        <ele>408</ele>
        <time>2024-11-27T10:16:11+01:00</time>
      </trkpt>
      <trkpt lat="44.01619" lon="5.92519">
        <ele>407.9</ele>
        <time>2024-11-27T10:16:20+01:00</time>
      </trkpt>
      <trkpt lat="44.01611" lon="5.92507">
        <ele>407.4</ele>
        <time>2024-11-27T10:16:32+01:00</time>
      </trkpt>
      <trkpt lat="44.01604" lon="5.92498">
        <ele>407.7</ele>
        <time>2024-11-27T10:16:47+01:00</time>
      </trkpt>
      <trkpt lat="44.01598" lon="5.92488">
        <ele>408.6</ele>
        <time>2024-11-27T10:16:56+01:00</time>
      </trkpt>
      <trkpt lat="44.01591" lon="5.92479">
        <ele>408.4</ele>
        <time>2024-11-27T10:17:08+01:00</time>
      </trkpt>
      <trkpt lat="44.01585" lon="5.92467">
        <ele>408</ele>
        <time>2024-11-27T10:17:29+01:00</time>
      </trkpt>
      <trkpt lat="44.01582" lon="5.92453">
        <ele>408.7</ele>
        <time>2024-11-27T10:17:38+01:00</time>
      </trkpt>
      <trkpt lat="44.01583" lon="5.92439">
        <ele>409.8</ele>
        <time>2024-11-27T10:17:47+01:00</time>
      </trkpt>
      <trkpt lat="44.01583" lon="5.92424">
        <ele>409.8</ele>
        <time>2024-11-27T10:17:56+01:00</time>
      </trkpt>
      <trkpt lat="44.01577" lon="5.92413">
        <ele>408.4</ele>
        <time>2024-11-27T10:18:05+01:00</time>
      </trkpt>
      <trkpt lat="44.01567" lon="5.92408">
        <ele>406.5</ele>
        <time>2024-11-27T10:18:14+01:00</time>
      </trkpt>
      <trkpt lat="44.01556" lon="5.92403">
        <ele>405</ele>
        <time>2024-11-27T10:18:23+01:00</time>
      </trkpt>
      <trkpt lat="44.01547" lon="5.92397">
        <ele>403.2</ele>
        <time>2024-11-27T10:18:32+01:00</time>
      </trkpt>
      <trkpt lat="44.01536" lon="5.92394">
        <ele>400.2</ele>
        <time>2024-11-27T10:18:41+01:00</time>
      </trkpt>
      <trkpt lat="44.01525" lon="5.92389">
        <ele>399.1</ele>
        <time>2024-11-27T10:18:52+01:00</time>
      </trkpt>
      <trkpt lat="44.01516" lon="5.92388">
        <ele>403.6</ele>
        <time>2024-11-27T10:19:02+01:00</time>
      </trkpt>
      <trkpt lat="44.01509" lon="5.92395">
        <ele>405.4</ele>
        <time>2024-11-27T10:19:11+01:00</time>
      </trkpt>
      <trkpt lat="44.01501" lon="5.92403">
        <ele>407.2</ele>
        <time>2024-11-27T10:19:23+01:00</time>
      </trkpt>
      <trkpt lat="44.01493" lon="5.92399">
        <ele>407.3</ele>
        <time>2024-11-27T10:19:32+01:00</time>
      </trkpt>
      <trkpt lat="44.01484" lon="5.92391">
        <ele>407.7</ele>
        <time>2024-11-27T10:19:41+01:00</time>
      </trkpt>
      <trkpt lat="44.01475" lon="5.92384">
        <ele>407.9</ele>
        <time>2024-11-27T10:19:50+01:00</time>
      </trkpt>
      <trkpt lat="44.01465" lon="5.92376">
        <ele>408.7</ele>
        <time>2024-11-27T10:20:00+01:00</time>
      </trkpt>
      <trkpt lat="44.01456" lon="5.92371">
        <ele>408.4</ele>
        <time>2024-11-27T10:20:15+01:00</time>
      </trkpt>
      <trkpt lat="44.01449" lon="5.92361">
        <ele>409.8</ele>
        <time>2024-11-27T10:21:09+01:00</time>
      </trkpt>
      <trkpt lat="44.01444" lon="5.9235">
        <ele>411.6</ele>
        <time>2024-11-27T10:21:21+01:00</time>
      </trkpt>
      <trkpt lat="44.01435" lon="5.92342">
        <ele>412.9</ele>
        <time>2024-11-27T10:21:30+01:00</time>
      </trkpt>
      <trkpt lat="44.01425" lon="5.9234">
        <ele>412.6</ele>
        <time>2024-11-27T10:21:39+01:00</time>
      </trkpt>
      <trkpt lat="44.01415" lon="5.92338">
        <ele>412.8</ele>
        <time>2024-11-27T10:21:47+01:00</time>
      </trkpt>
      <trkpt lat="44.01408" lon="5.92331">
        <ele>414.5</ele>
        <time>2024-11-27T10:22:00+01:00</time>
      </trkpt>
      <trkpt lat="44.01413" lon="5.92322">
        <ele>416.9</ele>
        <time>2024-11-27T10:22:09+01:00</time>
      </trkpt>
      <trkpt lat="44.01423" lon="5.92323">
        <ele>417.5</ele>
        <time>2024-11-27T10:22:18+01:00</time>
      </trkpt>
      <trkpt lat="44.01434" lon="5.92323">
        <ele>418.8</ele>
        <time>2024-11-27T10:22:26+01:00</time>
      </trkpt>
      <trkpt lat="44.01445" lon="5.92326">
        <ele>419.1</ele>
        <time>2024-11-27T10:22:39+01:00</time>
      </trkpt>
      <trkpt lat="44.01454" lon="5.92329">
        <ele>420.6</ele>
        <time>2024-11-27T10:22:48+01:00</time>
      </trkpt>
      <trkpt lat="44.01463" lon="5.92335">
        <ele>421.2</ele>
        <time>2024-11-27T10:22:57+01:00</time>
      </trkpt>
      <trkpt lat="44.0147" lon="5.92342">
        <ele>421.1</ele>
        <time>2024-11-27T10:23:06+01:00</time>
      </trkpt>
      <trkpt lat="44.01478" lon="5.92349">
        <ele>419.4</ele>
        <time>2024-11-27T10:23:15+01:00</time>
      </trkpt>
      <trkpt lat="44.01488" lon="5.92349">
        <ele>419.7</ele>
        <time>2024-11-27T10:23:27+01:00</time>
      </trkpt>
      <trkpt lat="44.01493" lon="5.92342">
        <ele>422.1</ele>
        <time>2024-11-27T10:23:39+01:00</time>
      </trkpt>
      <trkpt lat="44.01487" lon="5.92337">
        <ele>423.4</ele>
        <time>2024-11-27T10:23:51+01:00</time>
      </trkpt>
      <trkpt lat="44.0148" lon="5.92331">
        <ele>425.3</ele>
        <time>2024-11-27T10:24:03+01:00</time>
      </trkpt>
      <trkpt lat="44.01475" lon="5.92319">
        <ele>428.3</ele>
        <time>2024-11-27T10:24:18+01:00</time>
      </trkpt>
      <trkpt lat="44.01478" lon="5.92306">
        <ele>431</ele>
        <time>2024-11-27T10:26:36+01:00</time>
      </trkpt>
      <trkpt lat="44.01483" lon="5.92296">
        <ele>433.7</ele>
        <time>2024-11-27T10:26:57+01:00</time>
      </trkpt>
      <trkpt lat="44.01489" lon="5.92285">
        <ele>436.6</ele>
        <time>2024-11-27T10:27:12+01:00</time>
      </trkpt>
      <trkpt lat="44.01493" lon="5.92275">
        <ele>439.4</ele>
        <time>2024-11-27T10:27:32+01:00</time>
      </trkpt>
      <trkpt lat="44.01496" lon="5.92264">
        <ele>441.6</ele>
        <time>2024-11-27T10:27:57+01:00</time>
      </trkpt>
      <trkpt lat="44.01496" lon="5.92251">
        <ele>444.5</ele>
        <time>2024-11-27T10:28:18+01:00</time>
      </trkpt>
      <trkpt lat="44.01494" lon="5.9224">
        <ele>445.6</ele>
        <time>2024-11-27T10:28:36+01:00</time>
      </trkpt>
      <trkpt lat="44.01485" lon="5.92234">
        <ele>448.2</ele>
        <time>2024-11-27T10:29:06+01:00</time>
      </trkpt>
      <trkpt lat="44.01476" lon="5.9223">
        <ele>451.4</ele>
        <time>2024-11-27T10:29:27+01:00</time>
      </trkpt>
      <trkpt lat="44.01471" lon="5.9222">
        <ele>454.3</ele>
        <time>2024-11-27T10:29:42+01:00</time>
      </trkpt>
      <trkpt lat="44.01462" lon="5.92213">
        <ele>455.8</ele>
        <time>2024-11-27T10:29:57+01:00</time>
      </trkpt>
      <trkpt lat="44.01453" lon="5.92207">
        <ele>457.5</ele>
        <time>2024-11-27T10:30:18+01:00</time>
      </trkpt>
      <trkpt lat="44.01444" lon="5.92201">
        <ele>459.3</ele>
        <time>2024-11-27T10:30:33+01:00</time>
      </trkpt>
      <trkpt lat="44.01434" lon="5.92197">
        <ele>461</ele>
        <time>2024-11-27T10:30:54+01:00</time>
      </trkpt>
      <trkpt lat="44.01427" lon="5.92187">
        <ele>461.8</ele>
        <time>2024-11-27T10:31:06+01:00</time>
      </trkpt>
      <trkpt lat="44.01421" lon="5.92176">
        <ele>462.4</ele>
        <time>2024-11-27T10:31:21+01:00</time>
      </trkpt>
      <trkpt lat="44.01416" lon="5.92163">
        <ele>463.1</ele>
        <time>2024-11-27T10:31:33+01:00</time>
      </trkpt>
      <trkpt lat="44.01412" lon="5.92151">
        <ele>465.1</ele>
        <time>2024-11-27T10:31:45+01:00</time>
      </trkpt>
      <trkpt lat="44.01409" lon="5.92139">
        <ele>466.2</ele>
        <time>2024-11-27T10:31:57+01:00</time>
      </trkpt>
      <trkpt lat="44.0141" lon="5.92127">
        <ele>468.5</ele>
        <time>2024-11-27T10:32:08+01:00</time>
      </trkpt>
      <trkpt lat="44.01414" lon="5.92116">
        <ele>469.9</ele>
        <time>2024-11-27T10:32:21+01:00</time>
      </trkpt>
      <trkpt lat="44.01416" lon="5.92103">
        <ele>470.4</ele>
        <time>2024-11-27T10:32:39+01:00</time>
      </trkpt>
      <trkpt lat="44.01414" lon="5.92088">
        <ele>471.1</ele>
        <time>2024-11-27T10:32:54+01:00</time>
      </trkpt>
      <trkpt lat="44.01412" lon="5.92074">
        <ele>471.7</ele>
        <time>2024-11-27T10:33:09+01:00</time>
      </trkpt>
      <trkpt lat="44.01412" lon="5.92061">
        <ele>471.2</ele>
        <time>2024-11-27T10:33:18+01:00</time>
      </trkpt>
      <trkpt lat="44.01411" lon="5.92049">
        <ele>471.5</ele>
        <time>2024-11-27T10:33:27+01:00</time>
      </trkpt>
      <trkpt lat="44.0141" lon="5.92037">
        <ele>471.3</ele>
        <time>2024-11-27T10:33:36+01:00</time>
      </trkpt>
      <trkpt lat="44.01406" lon="5.92027">
        <ele>471.5</ele>
        <time>2024-11-27T10:33:51+01:00</time>
      </trkpt>
      <trkpt lat="44.01398" lon="5.92022">
        <ele>471.6</ele>
        <time>2024-11-27T10:34:03+01:00</time>
      </trkpt>
      <trkpt lat="44.01389" lon="5.92016">
        <ele>471.4</ele>
        <time>2024-11-27T10:34:12+01:00</time>
      </trkpt>
      <trkpt lat="44.0138" lon="5.92011">
        <ele>471.3</ele>
        <time>2024-11-27T10:34:21+01:00</time>
      </trkpt>
      <trkpt lat="44.01369" lon="5.92007">
        <ele>471.6</ele>
        <time>2024-11-27T10:34:32+01:00</time>
      </trkpt>
      <trkpt lat="44.01359" lon="5.92007">
        <ele>474.3</ele>
        <time>2024-11-27T10:34:45+01:00</time>
      </trkpt>
      <trkpt lat="44.0135" lon="5.92004">
        <ele>476.3</ele>
        <time>2024-11-27T10:34:57+01:00</time>
      </trkpt>
      <trkpt lat="44.01346" lon="5.91992">
        <ele>477.5</ele>
        <time>2024-11-27T10:35:12+01:00</time>
      </trkpt>
      <trkpt lat="44.01346" lon="5.9198">
        <ele>478.3</ele>
        <time>2024-11-27T10:35:24+01:00</time>
      </trkpt>
      <trkpt lat="44.0135" lon="5.91968">
        <ele>478.2</ele>
        <time>2024-11-27T10:35:39+01:00</time>
      </trkpt>
      <trkpt lat="44.01355" lon="5.91958">
        <ele>478.6</ele>
        <time>2024-11-27T10:35:48+01:00</time>
      </trkpt>
      <trkpt lat="44.01359" lon="5.91945">
        <ele>480.9</ele>
        <time>2024-11-27T10:36:00+01:00</time>
      </trkpt>
      <trkpt lat="44.01364" lon="5.91934">
        <ele>480.5</ele>
        <time>2024-11-27T10:36:12+01:00</time>
      </trkpt>
      <trkpt lat="44.01371" lon="5.91925">
        <ele>480.1</ele>
        <time>2024-11-27T10:36:21+01:00</time>
      </trkpt>
      <trkpt lat="44.01376" lon="5.91915">
        <ele>479.9</ele>
        <time>2024-11-27T10:36:33+01:00</time>
      </trkpt>
      <trkpt lat="44.01373" lon="5.91902">
        <ele>478.9</ele>
        <time>2024-11-27T10:36:48+01:00</time>
      </trkpt>
      <trkpt lat="44.01367" lon="5.91891">
        <ele>479</ele>
        <time>2024-11-27T10:37:03+01:00</time>
      </trkpt>
      <trkpt lat="44.01359" lon="5.9188">
        <ele>478.8</ele>
        <time>2024-11-27T10:37:15+01:00</time>
      </trkpt>
      <trkpt lat="44.01351" lon="5.91869">
        <ele>479.2</ele>
        <time>2024-11-27T10:37:24+01:00</time>
      </trkpt>
      <trkpt lat="44.01344" lon="5.91859">
        <ele>479.2</ele>
        <time>2024-11-27T10:37:33+01:00</time>
      </trkpt>
      <trkpt lat="44.01335" lon="5.91851">
        <ele>479.9</ele>
        <time>2024-11-27T10:37:45+01:00</time>
      </trkpt>
      <trkpt lat="44.01328" lon="5.91845">
        <ele>479.3</ele>
        <time>2024-11-27T10:37:57+01:00</time>
      </trkpt>
      <trkpt lat="44.01318" lon="5.91839">
        <ele>478.4</ele>
        <time>2024-11-27T10:38:06+01:00</time>
      </trkpt>
      <trkpt lat="44.01309" lon="5.91834">
        <ele>477</ele>
        <time>2024-11-27T10:38:18+01:00</time>
      </trkpt>
      <trkpt lat="44.013" lon="5.91831">
        <ele>475.6</ele>
        <time>2024-11-27T10:38:30+01:00</time>
      </trkpt>
      <trkpt lat="44.01291" lon="5.91828">
        <ele>474.5</ele>
        <time>2024-11-27T10:38:45+01:00</time>
      </trkpt>
      <trkpt lat="44.01284" lon="5.91818">
        <ele>472.6</ele>
        <time>2024-11-27T10:38:57+01:00</time>
      </trkpt>
      <trkpt lat="44.01278" lon="5.91807">
        <ele>472.1</ele>
        <time>2024-11-27T10:40:57+01:00</time>
      </trkpt>
      <trkpt lat="44.01278" lon="5.91795">
        <ele>473.1</ele>
        <time>2024-11-27T10:41:09+01:00</time>
      </trkpt>
      <trkpt lat="44.01281" lon="5.91783">
        <ele>473.5</ele>
        <time>2024-11-27T10:41:20+01:00</time>
      </trkpt>
      <trkpt lat="44.01281" lon="5.91771">
        <ele>474.4</ele>
        <time>2024-11-27T10:41:30+01:00</time>
      </trkpt>
      <trkpt lat="44.0128" lon="5.91757">
        <ele>476.4</ele>
        <time>2024-11-27T10:41:42+01:00</time>
      </trkpt>
      <trkpt lat="44.01277" lon="5.91745">
        <ele>478.8</ele>
        <time>2024-11-27T10:41:57+01:00</time>
      </trkpt>
      <trkpt lat="44.01274" lon="5.91732">
        <ele>480.6</ele>
        <time>2024-11-27T10:42:12+01:00</time>
      </trkpt>
      <trkpt lat="44.01268" lon="5.91722">
        <ele>482.3</ele>
        <time>2024-11-27T10:42:27+01:00</time>
      </trkpt>
      <trkpt lat="44.01259" lon="5.91717">
        <ele>483.9</ele>
        <time>2024-11-27T10:42:42+01:00</time>
      </trkpt>
      <trkpt lat="44.01249" lon="5.91714">
        <ele>486.3</ele>
        <time>2024-11-27T10:43:30+01:00</time>
      </trkpt>
      <trkpt lat="44.01239" lon="5.91711">
        <ele>488.8</ele>
        <time>2024-11-27T10:43:45+01:00</time>
      </trkpt>
      <trkpt lat="44.0123" lon="5.91705">
        <ele>490.8</ele>
        <time>2024-11-27T10:44:00+01:00</time>
      </trkpt>
      <trkpt lat="44.01222" lon="5.917">
        <ele>492.2</ele>
        <time>2024-11-27T10:44:21+01:00</time>
      </trkpt>
      <trkpt lat="44.01213" lon="5.91699">
        <ele>493.3</ele>
        <time>2024-11-27T10:44:36+01:00</time>
      </trkpt>
      <trkpt lat="44.01204" lon="5.91698">
        <ele>494.6</ele>
        <time>2024-11-27T10:44:48+01:00</time>
      </trkpt>
      <trkpt lat="44.01195" lon="5.917">
        <ele>496.6</ele>
        <time>2024-11-27T10:45:03+01:00</time>
      </trkpt>
      <trkpt lat="44.01186" lon="5.91702">
        <ele>498.9</ele>
        <time>2024-11-27T10:45:18+01:00</time>
      </trkpt>
      <trkpt lat="44.01176" lon="5.91699">
        <ele>500.1</ele>
        <time>2024-11-27T10:45:36+01:00</time>
      </trkpt>
      <trkpt lat="44.01166" lon="5.91693">
        <ele>500.9</ele>
        <time>2024-11-27T10:45:54+01:00</time>
      </trkpt>
      <trkpt lat="44.01159" lon="5.91685">
        <ele>502.9</ele>
        <time>2024-11-27T10:46:06+01:00</time>
      </trkpt>
      <trkpt lat="44.01152" lon="5.91678">
        <ele>504.7</ele>
        <time>2024-11-27T10:46:21+01:00</time>
      </trkpt>
      <trkpt lat="44.01145" lon="5.91669">
        <ele>506</ele>
        <time>2024-11-27T10:46:39+01:00</time>
      </trkpt>
      <trkpt lat="44.01137" lon="5.91665">
        <ele>507.8</ele>
        <time>2024-11-27T10:46:54+01:00</time>
      </trkpt>
      <trkpt lat="44.01128" lon="5.91664">
        <ele>508.8</ele>
        <time>2024-11-27T10:47:08+01:00</time>
      </trkpt>
      <trkpt lat="44.01117" lon="5.91664">
        <ele>510.5</ele>
        <time>2024-11-27T10:47:30+01:00</time>
      </trkpt>
      <trkpt lat="44.01107" lon="5.91663">
        <ele>512.4</ele>
        <time>2024-11-27T10:47:48+01:00</time>
      </trkpt>
      <trkpt lat="44.01099" lon="5.9166">
        <ele>513.9</ele>
        <time>2024-11-27T10:48:03+01:00</time>
      </trkpt>
      <trkpt lat="44.0109" lon="5.91656">
        <ele>515.2</ele>
        <time>2024-11-27T10:48:21+01:00</time>
      </trkpt>
      <trkpt lat="44.01081" lon="5.91654">
        <ele>516.8</ele>
        <time>2024-11-27T10:48:33+01:00</time>
      </trkpt>
      <trkpt lat="44.01072" lon="5.91653">
        <ele>518</ele>
        <time>2024-11-27T10:48:45+01:00</time>
      </trkpt>
      <trkpt lat="44.01064" lon="5.91655">
        <ele>520.2</ele>
        <time>2024-11-27T10:49:09+01:00</time>
      </trkpt>
      <trkpt lat="44.01055" lon="5.91658">
        <ele>522.3</ele>
        <time>2024-11-27T10:49:21+01:00</time>
      </trkpt>
      <trkpt lat="44.01045" lon="5.91659">
        <ele>524.1</ele>
        <time>2024-11-27T10:49:32+01:00</time>
      </trkpt>
      <trkpt lat="44.01035" lon="5.91658">
        <ele>525.8</ele>
        <time>2024-11-27T10:49:47+01:00</time>
      </trkpt>
      <trkpt lat="44.01026" lon="5.91659">
        <ele>527.4</ele>
        <time>2024-11-27T10:50:03+01:00</time>
      </trkpt>
      <trkpt lat="44.01017" lon="5.91656">
        <ele>529.2</ele>
        <time>2024-11-27T10:50:18+01:00</time>
      </trkpt>
      <trkpt lat="44.01007" lon="5.91658">
        <ele>531.2</ele>
        <time>2024-11-27T10:50:33+01:00</time>
      </trkpt>
      <trkpt lat="44.00998" lon="5.91658">
        <ele>533.2</ele>
        <time>2024-11-27T10:50:51+01:00</time>
      </trkpt>
      <trkpt lat="44.00989" lon="5.91659">
        <ele>534.8</ele>
        <time>2024-11-27T10:51:12+01:00</time>
      </trkpt>
      <trkpt lat="44.0098" lon="5.91661">
        <ele>536.6</ele>
        <time>2024-11-27T10:51:33+01:00</time>
      </trkpt>
      <trkpt lat="44.00971" lon="5.91656">
        <ele>538.2</ele>
        <time>2024-11-27T10:51:57+01:00</time>
      </trkpt>
      <trkpt lat="44.00963" lon="5.91652">
        <ele>540.2</ele>
        <time>2024-11-27T10:52:21+01:00</time>
      </trkpt>
      <trkpt lat="44.00954" lon="5.91649">
        <ele>542.4</ele>
        <time>2024-11-27T10:52:42+01:00</time>
      </trkpt>
      <trkpt lat="44.00946" lon="5.91655">
        <ele>544</ele>
        <time>2024-11-27T10:52:57+01:00</time>
      </trkpt>
      <trkpt lat="44.0094" lon="5.91662">
        <ele>543.4</ele>
        <time>2024-11-27T10:53:12+01:00</time>
      </trkpt>
      <trkpt lat="44.00937" lon="5.91652">
        <ele>543.3</ele>
        <time>2024-11-27T11:02:44+01:00</time>
      </trkpt>
      <trkpt lat="44.00933" lon="5.91641">
        <ele>543.6</ele>
        <time>2024-11-27T11:02:57+01:00</time>
      </trkpt>
      <trkpt lat="44.00929" lon="5.9163">
        <ele>544.9</ele>
        <time>2024-11-27T11:03:15+01:00</time>
      </trkpt>
      <trkpt lat="44.00924" lon="5.91618">
        <ele>546.7</ele>
        <time>2024-11-27T11:04:33+01:00</time>
      </trkpt>
      <trkpt lat="44.0092" lon="5.91604">
        <ele>549.1</ele>
        <time>2024-11-27T11:04:48+01:00</time>
      </trkpt>
      <trkpt lat="44.00916" lon="5.91592">
        <ele>550.7</ele>
        <time>2024-11-27T11:05:00+01:00</time>
      </trkpt>
      <trkpt lat="44.00912" lon="5.91579">
        <ele>551.7</ele>
        <time>2024-11-27T11:05:18+01:00</time>
      </trkpt>
      <trkpt lat="44.00911" lon="5.91567">
        <ele>553.6</ele>
        <time>2024-11-27T11:05:33+01:00</time>
      </trkpt>
      <trkpt lat="44.00916" lon="5.91558">
        <ele>556.3</ele>
        <time>2024-11-27T11:05:48+01:00</time>
      </trkpt>
      <trkpt lat="44.00925" lon="5.91561">
        <ele>556.8</ele>
        <time>2024-11-27T11:05:57+01:00</time>
      </trkpt>
      <trkpt lat="44.00935" lon="5.91564">
        <ele>557</ele>
        <time>2024-11-27T11:06:12+01:00</time>
      </trkpt>
      <trkpt lat="44.00943" lon="5.91562">
        <ele>558.4</ele>
        <time>2024-11-27T11:06:21+01:00</time>
      </trkpt>
      <trkpt lat="44.00951" lon="5.91554">
        <ele>559.4</ele>
        <time>2024-11-27T11:06:39+01:00</time>
      </trkpt>
      <trkpt lat="44.00958" lon="5.91546">
        <ele>560.3</ele>
        <time>2024-11-27T11:06:51+01:00</time>
      </trkpt>
      <trkpt lat="44.00964" lon="5.91537">
        <ele>561.6</ele>
        <time>2024-11-27T11:07:09+01:00</time>
      </trkpt>
      <trkpt lat="44.00969" lon="5.91525">
        <ele>563.3</ele>
        <time>2024-11-27T11:07:21+01:00</time>
      </trkpt>
      <trkpt lat="44.00971" lon="5.91512">
        <ele>565.2</ele>
        <time>2024-11-27T11:07:33+01:00</time>
      </trkpt>
      <trkpt lat="44.00974" lon="5.91498">
        <ele>566.6</ele>
        <time>2024-11-27T11:07:48+01:00</time>
      </trkpt>
      <trkpt lat="44.0098" lon="5.91485">
        <ele>567.3</ele>
        <time>2024-11-27T11:08:00+01:00</time>
      </trkpt>
      <trkpt lat="44.00986" lon="5.91475">
        <ele>567.6</ele>
        <time>2024-11-27T11:08:12+01:00</time>
      </trkpt>
      <trkpt lat="44.0099" lon="5.91465">
        <ele>567.3</ele>
        <time>2024-11-27T11:08:24+01:00</time>
      </trkpt>
      <trkpt lat="44.00987" lon="5.91453">
        <ele>568.8</ele>
        <time>2024-11-27T11:08:39+01:00</time>
      </trkpt>
      <trkpt lat="44.00977" lon="5.9145">
        <ele>570.6</ele>
        <time>2024-11-27T11:08:51+01:00</time>
      </trkpt>
      <trkpt lat="44.00965" lon="5.9145">
        <ele>572.3</ele>
        <time>2024-11-27T11:09:06+01:00</time>
      </trkpt>
      <trkpt lat="44.00954" lon="5.91449">
        <ele>573.7</ele>
        <time>2024-11-27T11:09:18+01:00</time>
      </trkpt>
      <trkpt lat="44.00944" lon="5.91446">
        <ele>574.3</ele>
        <time>2024-11-27T11:09:27+01:00</time>
      </trkpt>
      <trkpt lat="44.00935" lon="5.91439">
        <ele>574.4</ele>
        <time>2024-11-27T11:09:39+01:00</time>
      </trkpt>
      <trkpt lat="44.00925" lon="5.91432">
        <ele>574.9</ele>
        <time>2024-11-27T11:09:51+01:00</time>
      </trkpt>
      <trkpt lat="44.00915" lon="5.91426">
        <ele>575.2</ele>
        <time>2024-11-27T11:10:03+01:00</time>
      </trkpt>
      <trkpt lat="44.00907" lon="5.91417">
        <ele>574.4</ele>
        <time>2024-11-27T11:10:11+01:00</time>
      </trkpt>
      <trkpt lat="44.00903" lon="5.91406">
        <ele>575.5</ele>
        <time>2024-11-27T11:10:21+01:00</time>
      </trkpt>
      <trkpt lat="44.00902" lon="5.9139">
        <ele>577</ele>
        <time>2024-11-27T11:10:33+01:00</time>
      </trkpt>
      <trkpt lat="44.00903" lon="5.91377">
        <ele>579.5</ele>
        <time>2024-11-27T11:10:45+01:00</time>
      </trkpt>
      <trkpt lat="44.00902" lon="5.91362">
        <ele>582.8</ele>
        <time>2024-11-27T11:11:00+01:00</time>
      </trkpt>
      <trkpt lat="44.00901" lon="5.91349">
        <ele>583.2</ele>
        <time>2024-11-27T11:11:15+01:00</time>
      </trkpt>
      <trkpt lat="44.00899" lon="5.91337">
        <ele>583.6</ele>
        <time>2024-11-27T11:11:42+01:00</time>
      </trkpt>
      <trkpt lat="44.00894" lon="5.91327">
        <ele>584.9</ele>
        <time>2024-11-27T11:12:00+01:00</time>
      </trkpt>
      <trkpt lat="44.00887" lon="5.9132">
        <ele>586.8</ele>
        <time>2024-11-27T11:12:15+01:00</time>
      </trkpt>
      <trkpt lat="44.00878" lon="5.91314">
        <ele>587.8</ele>
        <time>2024-11-27T11:12:27+01:00</time>
      </trkpt>
      <trkpt lat="44.00869" lon="5.91309">
        <ele>589.4</ele>
        <time>2024-11-27T11:12:42+01:00</time>
      </trkpt>
      <trkpt lat="44.00861" lon="5.91303">
        <ele>590.8</ele>
        <time>2024-11-27T11:12:54+01:00</time>
      </trkpt>
      <trkpt lat="44.00853" lon="5.91296">
        <ele>590.7</ele>
        <time>2024-11-27T11:13:06+01:00</time>
      </trkpt>
      <trkpt lat="44.00844" lon="5.91289">
        <ele>591.3</ele>
        <time>2024-11-27T11:13:18+01:00</time>
      </trkpt>
      <trkpt lat="44.00835" lon="5.91282">
        <ele>592.5</ele>
        <time>2024-11-27T11:13:30+01:00</time>
      </trkpt>
      <trkpt lat="44.00827" lon="5.91275">
        <ele>593.3</ele>
        <time>2024-11-27T11:13:42+01:00</time>
      </trkpt>
      <trkpt lat="44.00817" lon="5.91273">
        <ele>594.3</ele>
        <time>2024-11-27T11:13:57+01:00</time>
      </trkpt>
      <trkpt lat="44.00808" lon="5.91274">
        <ele>595.2</ele>
        <time>2024-11-27T11:14:09+01:00</time>
      </trkpt>
      <trkpt lat="44.00799" lon="5.91276">
        <ele>596</ele>
        <time>2024-11-27T11:14:36+01:00</time>
      </trkpt>
      <trkpt lat="44.0079" lon="5.91275">
        <ele>597.3</ele>
        <time>2024-11-27T11:14:48+01:00</time>
      </trkpt>
      <trkpt lat="44.00781" lon="5.91272">
        <ele>599.1</ele>
        <time>2024-11-27T11:15:03+01:00</time>
      </trkpt>
      <trkpt lat="44.00773" lon="5.91268">
        <ele>600.6</ele>
        <time>2024-11-27T11:15:15+01:00</time>
      </trkpt>
      <trkpt lat="44.00764" lon="5.91262">
        <ele>601.9</ele>
        <time>2024-11-27T11:15:30+01:00</time>
      </trkpt>
      <trkpt lat="44.00758" lon="5.91255">
        <ele>603.9</ele>
        <time>2024-11-27T11:15:42+01:00</time>
      </trkpt>
      <trkpt lat="44.00762" lon="5.91244">
        <ele>606.3</ele>
        <time>2024-11-27T11:16:03+01:00</time>
      </trkpt>
      <trkpt lat="44.00768" lon="5.91233">
        <ele>607.3</ele>
        <time>2024-11-27T11:16:18+01:00</time>
      </trkpt>
      <trkpt lat="44.00772" lon="5.91221">
        <ele>607.5</ele>
        <time>2024-11-27T11:16:30+01:00</time>
      </trkpt>
      <trkpt lat="44.00774" lon="5.91207">
        <ele>608</ele>
        <time>2024-11-27T11:16:42+01:00</time>
      </trkpt>
      <trkpt lat="44.00775" lon="5.91195">
        <ele>608.7</ele>
        <time>2024-11-27T11:16:51+01:00</time>
      </trkpt>
      <trkpt lat="44.00776" lon="5.9118">
        <ele>609.5</ele>
        <time>2024-11-27T11:17:03+01:00</time>
      </trkpt>
      <trkpt lat="44.00779" lon="5.91166">
        <ele>609.6</ele>
        <time>2024-11-27T11:17:15+01:00</time>
      </trkpt>
      <trkpt lat="44.0078" lon="5.91153">
        <ele>609.7</ele>
        <time>2024-11-27T11:17:24+01:00</time>
      </trkpt>
      <trkpt lat="44.00782" lon="5.91139">
        <ele>609.8</ele>
        <time>2024-11-27T11:17:33+01:00</time>
      </trkpt>
      <trkpt lat="44.00782" lon="5.91124">
        <ele>610.7</ele>
        <time>2024-11-27T11:17:42+01:00</time>
      </trkpt>
      <trkpt lat="44.00782" lon="5.91109">
        <ele>611.7</ele>
        <time>2024-11-27T11:17:54+01:00</time>
      </trkpt>
      <trkpt lat="44.0078" lon="5.91094">
        <ele>613</ele>
        <time>2024-11-27T11:18:05+01:00</time>
      </trkpt>
      <trkpt lat="44.00776" lon="5.9108">
        <ele>614.8</ele>
        <time>2024-11-27T11:18:18+01:00</time>
      </trkpt>
      <trkpt lat="44.00772" lon="5.91067">
        <ele>615.7</ele>
        <time>2024-11-27T11:18:30+01:00</time>
      </trkpt>
      <trkpt lat="44.00769" lon="5.91053">
        <ele>616.5</ele>
        <time>2024-11-27T11:18:42+01:00</time>
      </trkpt>
      <trkpt lat="44.00766" lon="5.9104">
        <ele>617</ele>
        <time>2024-11-27T11:18:54+01:00</time>
      </trkpt>
      <trkpt lat="44.00762" lon="5.91028">
        <ele>618.2</ele>
        <time>2024-11-27T11:19:06+01:00</time>
      </trkpt>
      <trkpt lat="44.00758" lon="5.91017">
        <ele>619.3</ele>
        <time>2024-11-27T11:19:18+01:00</time>
      </trkpt>
      <trkpt lat="44.00752" lon="5.91005">
        <ele>620.7</ele>
        <time>2024-11-27T11:19:30+01:00</time>
      </trkpt>
      <trkpt lat="44.00746" lon="5.90994">
        <ele>621.6</ele>
        <time>2024-11-27T11:19:42+01:00</time>
      </trkpt>
      <trkpt lat="44.0074" lon="5.90982">
        <ele>622.4</ele>
        <time>2024-11-27T11:19:54+01:00</time>
      </trkpt>
      <trkpt lat="44.00735" lon="5.90971">
        <ele>623</ele>
        <time>2024-11-27T11:20:06+01:00</time>
      </trkpt>
      <trkpt lat="44.00729" lon="5.90959">
        <ele>624.2</ele>
        <time>2024-11-27T11:20:18+01:00</time>
      </trkpt>
      <trkpt lat="44.00725" lon="5.90949">
        <ele>625.4</ele>
        <time>2024-11-27T11:20:27+01:00</time>
      </trkpt>
      <trkpt lat="44.00721" lon="5.90938">
        <ele>625.8</ele>
        <time>2024-11-27T11:20:39+01:00</time>
      </trkpt>
      <trkpt lat="44.00716" lon="5.90925">
        <ele>627</ele>
        <time>2024-11-27T11:20:51+01:00</time>
      </trkpt>
      <trkpt lat="44.00713" lon="5.90912">
        <ele>627.4</ele>
        <time>2024-11-27T11:21:03+01:00</time>
      </trkpt>
      <trkpt lat="44.00712" lon="5.90896">
        <ele>627.4</ele>
        <time>2024-11-27T11:21:15+01:00</time>
      </trkpt>
      <trkpt lat="44.00712" lon="5.90882">
        <ele>627.9</ele>
        <time>2024-11-27T11:21:27+01:00</time>
      </trkpt>
      <trkpt lat="44.00714" lon="5.90869">
        <ele>628.6</ele>
        <time>2024-11-27T11:21:36+01:00</time>
      </trkpt>
      <trkpt lat="44.00717" lon="5.90855">
        <ele>629.3</ele>
        <time>2024-11-27T11:21:48+01:00</time>
      </trkpt>
      <trkpt lat="44.00718" lon="5.90844">
        <ele>629.8</ele>
        <time>2024-11-27T11:22:06+01:00</time>
      </trkpt>
      <trkpt lat="44.00712" lon="5.90838">
        <ele>630.9</ele>
        <time>2024-11-27T11:25:30+01:00</time>
      </trkpt>
      <trkpt lat="44.00704" lon="5.90841">
        <ele>631.8</ele>
        <time>2024-11-27T11:25:45+01:00</time>
      </trkpt>
      <trkpt lat="44.00695" lon="5.90843">
        <ele>632.9</ele>
        <time>2024-11-27T11:26:00+01:00</time>
      </trkpt>
      <trkpt lat="44.00687" lon="5.90837">
        <ele>634.7</ele>
        <time>2024-11-27T11:26:15+01:00</time>
      </trkpt>
      <trkpt lat="44.0068" lon="5.90831">
        <ele>635.8</ele>
        <time>2024-11-27T11:26:27+01:00</time>
      </trkpt>
      <trkpt lat="44.00672" lon="5.90826">
        <ele>636.9</ele>
        <time>2024-11-27T11:26:42+01:00</time>
      </trkpt>
      <trkpt lat="44.00661" lon="5.90823">
        <ele>638.7</ele>
        <time>2024-11-27T11:27:03+01:00</time>
      </trkpt>
      <trkpt lat="44.00651" lon="5.90819">
        <ele>640.4</ele>
        <time>2024-11-27T11:27:18+01:00</time>
      </trkpt>
      <trkpt lat="44.00642" lon="5.90816">
        <ele>641.7</ele>
        <time>2024-11-27T11:27:33+01:00</time>
      </trkpt>
      <trkpt lat="44.00632" lon="5.90812">
        <ele>643.1</ele>
        <time>2024-11-27T11:27:51+01:00</time>
      </trkpt>
      <trkpt lat="44.00623" lon="5.90809">
        <ele>644.9</ele>
        <time>2024-11-27T11:28:06+01:00</time>
      </trkpt>
      <trkpt lat="44.00614" lon="5.90805">
        <ele>646.1</ele>
        <time>2024-11-27T11:28:21+01:00</time>
      </trkpt>
      <trkpt lat="44.00606" lon="5.908">
        <ele>646.8</ele>
        <time>2024-11-27T11:28:39+01:00</time>
      </trkpt>
      <trkpt lat="44.00597" lon="5.90797">
        <ele>648</ele>
        <time>2024-11-27T11:28:51+01:00</time>
      </trkpt>
      <trkpt lat="44.00588" lon="5.90794">
        <ele>649.2</ele>
        <time>2024-11-27T11:29:06+01:00</time>
      </trkpt>
      <trkpt lat="44.00579" lon="5.90791">
        <ele>650.4</ele>
        <time>2024-11-27T11:29:18+01:00</time>
      </trkpt>
      <trkpt lat="44.00569" lon="5.90791">
        <ele>652.1</ele>
        <time>2024-11-27T11:29:36+01:00</time>
      </trkpt>
      <trkpt lat="44.0056" lon="5.90789">
        <ele>653.2</ele>
        <time>2024-11-27T11:29:51+01:00</time>
      </trkpt>
      <trkpt lat="44.00551" lon="5.90788">
        <ele>654.7</ele>
        <time>2024-11-27T11:30:09+01:00</time>
      </trkpt>
      <trkpt lat="44.00542" lon="5.90789">
        <ele>656.5</ele>
        <time>2024-11-27T11:30:27+01:00</time>
      </trkpt>
      <trkpt lat="44.00532" lon="5.90788">
        <ele>657.5</ele>
        <time>2024-11-27T11:30:42+01:00</time>
      </trkpt>
      <trkpt lat="44.00523" lon="5.90786">
        <ele>658.6</ele>
        <time>2024-11-27T11:30:57+01:00</time>
      </trkpt>
      <trkpt lat="44.00514" lon="5.90785">
        <ele>660.2</ele>
        <time>2024-11-27T11:31:12+01:00</time>
      </trkpt>
      <trkpt lat="44.00505" lon="5.90784">
        <ele>661.7</ele>
        <time>2024-11-27T11:31:24+01:00</time>
      </trkpt>
      <trkpt lat="44.00497" lon="5.90783">
        <ele>663.1</ele>
        <time>2024-11-27T11:31:42+01:00</time>
      </trkpt>
      <trkpt lat="44.00487" lon="5.90782">
        <ele>664.6</ele>
        <time>2024-11-27T11:31:57+01:00</time>
      </trkpt>
      <trkpt lat="44.00478" lon="5.90778">
        <ele>665.2</ele>
        <time>2024-11-27T11:32:12+01:00</time>
      </trkpt>
      <trkpt lat="44.00469" lon="5.90774">
        <ele>665.6</ele>
        <time>2024-11-27T11:32:27+01:00</time>
      </trkpt>
      <trkpt lat="44.0046" lon="5.9077">
        <ele>666.5</ele>
        <time>2024-11-27T11:32:42+01:00</time>
      </trkpt>
      <trkpt lat="44.0045" lon="5.90768">
        <ele>668.4</ele>
        <time>2024-11-27T11:33:00+01:00</time>
      </trkpt>
      <trkpt lat="44.00441" lon="5.90768">
        <ele>670.7</ele>
        <time>2024-11-27T11:33:24+01:00</time>
      </trkpt>
      <trkpt lat="44.00432" lon="5.90768">
        <ele>672.7</ele>
        <time>2024-11-27T11:33:39+01:00</time>
      </trkpt>
      <trkpt lat="44.00422" lon="5.90764">
        <ele>673.8</ele>
        <time>2024-11-27T11:33:57+01:00</time>
      </trkpt>
      <trkpt lat="44.00414" lon="5.90761">
        <ele>674.7</ele>
        <time>2024-11-27T11:34:09+01:00</time>
      </trkpt>
      <trkpt lat="44.00404" lon="5.90758">
        <ele>676</ele>
        <time>2024-11-27T11:34:24+01:00</time>
      </trkpt>
      <trkpt lat="44.00394" lon="5.90753">
        <ele>676.8</ele>
        <time>2024-11-27T11:34:36+01:00</time>
      </trkpt>
      <trkpt lat="44.00385" lon="5.90748">
        <ele>677.3</ele>
        <time>2024-11-27T11:34:48+01:00</time>
      </trkpt>
      <trkpt lat="44.00377" lon="5.90744">
        <ele>677.8</ele>
        <time>2024-11-27T11:35:00+01:00</time>
      </trkpt>
      <trkpt lat="44.00368" lon="5.90739">
        <ele>678.4</ele>
        <time>2024-11-27T11:35:12+01:00</time>
      </trkpt>
      <trkpt lat="44.00359" lon="5.90734">
        <ele>679.4</ele>
        <time>2024-11-27T11:35:24+01:00</time>
      </trkpt>
      <trkpt lat="44.0035" lon="5.90729">
        <ele>680</ele>
        <time>2024-11-27T11:35:39+01:00</time>
      </trkpt>
      <trkpt lat="44.00341" lon="5.90726">
        <ele>681.4</ele>
        <time>2024-11-27T11:35:51+01:00</time>
      </trkpt>
      <trkpt lat="44.00332" lon="5.90724">
        <ele>682.9</ele>
        <time>2024-11-27T11:36:03+01:00</time>
      </trkpt>
      <trkpt lat="44.00323" lon="5.90723">
        <ele>684.7</ele>
        <time>2024-11-27T11:36:19+01:00</time>
      </trkpt>
      <trkpt lat="44.00314" lon="5.90721">
        <ele>686.6</ele>
        <time>2024-11-27T11:36:40+01:00</time>
      </trkpt>
      <trkpt lat="44.00304" lon="5.90718">
        <ele>688</ele>
        <time>2024-11-27T11:36:58+01:00</time>
      </trkpt>
      <trkpt lat="44.00294" lon="5.90715">
        <ele>690</ele>
        <time>2024-11-27T11:37:16+01:00</time>
      </trkpt>
      <trkpt lat="44.00285" lon="5.9071">
        <ele>691.2</ele>
        <time>2024-11-27T11:37:46+01:00</time>
      </trkpt>
      <trkpt lat="44.00276" lon="5.90708">
        <ele>693.1</ele>
        <time>2024-11-27T11:38:07+01:00</time>
      </trkpt>
      <trkpt lat="44.00268" lon="5.90709">
        <ele>693.9</ele>
        <time>2024-11-27T11:38:30+01:00</time>
      </trkpt>
      <trkpt lat="44.00276" lon="5.90712">
        <ele>694.2</ele>
        <time>2024-11-27T11:40:58+01:00</time>
      </trkpt>
      <trkpt lat="44.00285" lon="5.90719">
        <ele>694</ele>
        <time>2024-11-27T11:41:55+01:00</time>
      </trkpt>
      <trkpt lat="44.00292" lon="5.90729">
        <ele>693.7</ele>
        <time>2024-11-27T11:42:13+01:00</time>
      </trkpt>
      <trkpt lat="44.00299" lon="5.90739">
        <ele>694.5</ele>
        <time>2024-11-27T11:42:24+01:00</time>
      </trkpt>
      <trkpt lat="44.00306" lon="5.90746">
        <ele>695.6</ele>
        <time>2024-11-27T11:42:34+01:00</time>
      </trkpt>
      <trkpt lat="44.00315" lon="5.9075">
        <ele>695.4</ele>
        <time>2024-11-27T11:42:46+01:00</time>
      </trkpt>
      <trkpt lat="44.00323" lon="5.90757">
        <ele>694.9</ele>
        <time>2024-11-27T11:42:55+01:00</time>
      </trkpt>
      <trkpt lat="44.00331" lon="5.90763">
        <ele>695.4</ele>
        <time>2024-11-27T11:43:07+01:00</time>
      </trkpt>
      <trkpt lat="44.0034" lon="5.90769">
        <ele>695.4</ele>
        <time>2024-11-27T11:43:25+01:00</time>
      </trkpt>
      <trkpt lat="44.00347" lon="5.90779">
        <ele>696.6</ele>
        <time>2024-11-27T11:43:40+01:00</time>
      </trkpt>
      <trkpt lat="44.00352" lon="5.90794">
        <ele>697.8</ele>
        <time>2024-11-27T11:44:10+01:00</time>
      </trkpt>
      <trkpt lat="44.00358" lon="5.90803">
        <ele>699.4</ele>
        <time>2024-11-27T11:44:22+01:00</time>
      </trkpt>
      <trkpt lat="44.00368" lon="5.90806">
        <ele>699</ele>
        <time>2024-11-27T11:44:34+01:00</time>
      </trkpt>
      <trkpt lat="44.00377" lon="5.90811">
        <ele>698.3</ele>
        <time>2024-11-27T11:44:46+01:00</time>
      </trkpt>
      <trkpt lat="44.00385" lon="5.90818">
        <ele>698.4</ele>
        <time>2024-11-27T11:45:01+01:00</time>
      </trkpt>
      <trkpt lat="44.00394" lon="5.90823">
        <ele>698.3</ele>
        <time>2024-11-27T11:45:34+01:00</time>
      </trkpt>
      <trkpt lat="44.004" lon="5.90831">
        <ele>699.3</ele>
        <time>2024-11-27T11:45:48+01:00</time>
      </trkpt>
      <trkpt lat="44.00408" lon="5.90839">
        <ele>699.4</ele>
        <time>2024-11-27T11:46:06+01:00</time>
      </trkpt>
      <trkpt lat="44.00417" lon="5.90843">
        <ele>699.4</ele>
        <time>2024-11-27T11:46:19+01:00</time>
      </trkpt>
      <trkpt lat="44.00424" lon="5.90853">
        <ele>700.3</ele>
        <time>2024-11-27T11:46:37+01:00</time>
      </trkpt>
      <trkpt lat="44.00433" lon="5.90859">
        <ele>701.7</ele>
        <time>2024-11-27T11:46:54+01:00</time>
      </trkpt>
      <trkpt lat="44.00442" lon="5.90863">
        <ele>703</ele>
        <time>2024-11-27T11:47:07+01:00</time>
      </trkpt>
      <trkpt lat="44.00451" lon="5.9087">
        <ele>702.6</ele>
        <time>2024-11-27T11:47:25+01:00</time>
      </trkpt>
      <trkpt lat="44.00461" lon="5.90874">
        <ele>701.9</ele>
        <time>2024-11-27T11:47:37+01:00</time>
      </trkpt>
      <trkpt lat="44.00469" lon="5.90883">
        <ele>704.4</ele>
        <time>2024-11-27T11:47:52+01:00</time>
      </trkpt>
      <trkpt lat="44.00476" lon="5.90889">
        <ele>706.6</ele>
        <time>2024-11-27T11:48:19+01:00</time>
      </trkpt>
      <trkpt lat="44.00476" lon="5.90901">
        <ele>707</ele>
        <time>2024-11-27T11:48:54+01:00</time>
      </trkpt>
      <trkpt lat="44.00473" lon="5.90915">
        <ele>707.1</ele>
        <time>2024-11-27T11:49:12+01:00</time>
      </trkpt>
      <trkpt lat="44.00471" lon="5.90929">
        <ele>706.7</ele>
        <time>2024-11-27T11:49:31+01:00</time>
      </trkpt>
      <trkpt lat="44.00469" lon="5.90941">
        <ele>706.2</ele>
        <time>2024-11-27T11:49:42+01:00</time>
      </trkpt>
      <trkpt lat="44.00467" lon="5.90953">
        <ele>705.8</ele>
        <time>2024-11-27T11:49:51+01:00</time>
      </trkpt>
      <trkpt lat="44.00466" lon="5.90962">
        <ele>705.5</ele>
        <time>2024-11-27T11:50:45+01:00</time>
      </trkpt>
      <trkpt lat="44.00464" lon="5.90954">
        <ele>705.2</ele>
        <time>2024-11-27T11:52:37+01:00</time>
      </trkpt>
      <trkpt lat="44.00466" lon="5.90942">
        <ele>705.7</ele>
        <time>2024-11-27T11:52:56+01:00</time>
      </trkpt>
      <trkpt lat="44.00469" lon="5.9093">
        <ele>706.4</ele>
        <time>2024-11-27T11:53:08+01:00</time>
      </trkpt>
      <trkpt lat="44.00472" lon="5.90918">
        <ele>706.9</ele>
        <time>2024-11-27T11:53:26+01:00</time>
      </trkpt>
      <trkpt lat="44.00476" lon="5.90906">
        <ele>707.2</ele>
        <time>2024-11-27T11:53:38+01:00</time>
      </trkpt>
      <trkpt lat="44.00481" lon="5.90895">
        <ele>706.6</ele>
        <time>2024-11-27T11:54:02+01:00</time>
      </trkpt>
      <trkpt lat="44.00478" lon="5.90885">
        <ele>704.5</ele>
        <time>2024-11-27T11:54:56+01:00</time>
      </trkpt>
      <trkpt lat="44.00468" lon="5.90877">
        <ele>702</ele>
        <time>2024-11-27T11:55:20+01:00</time>
      </trkpt>
      <trkpt lat="44.00458" lon="5.90872">
        <ele>701.7</ele>
        <time>2024-11-27T11:55:47+01:00</time>
      </trkpt>
      <trkpt lat="44.00449" lon="5.90864">
        <ele>702.2</ele>
        <time>2024-11-27T11:56:08+01:00</time>
      </trkpt>
      <trkpt lat="44.00441" lon="5.90858">
        <ele>701.7</ele>
        <time>2024-11-27T11:56:59+01:00</time>
      </trkpt>
      <trkpt lat="44.00433" lon="5.90859">
        <ele>701.8</ele>
        <time>2024-11-27T12:52:56+01:00</time>
      </trkpt>
      <trkpt lat="44.00424" lon="5.90855">
        <ele>700.8</ele>
        <time>2024-11-27T12:53:48+01:00</time>
      </trkpt>
      <trkpt lat="44.0042" lon="5.90845">
        <ele>699.1</ele>
        <time>2024-11-27T13:03:39+01:00</time>
      </trkpt>
      <trkpt lat="44.00412" lon="5.90841">
        <ele>699.3</ele>
        <time>2024-11-27T13:06:24+01:00</time>
      </trkpt>
      <trkpt lat="44.00404" lon="5.90835">
        <ele>699.5</ele>
        <time>2024-11-27T13:08:15+01:00</time>
      </trkpt>
      <trkpt lat="44.00398" lon="5.90827">
        <ele>698.5</ele>
        <time>2024-11-27T13:21:54+01:00</time>
      </trkpt>
      <trkpt lat="44.0039" lon="5.90821">
        <ele>698.7</ele>
        <time>2024-11-27T13:22:23+01:00</time>
      </trkpt>
      <trkpt lat="44.00382" lon="5.90814">
        <ele>698</ele>
        <time>2024-11-27T13:22:48+01:00</time>
      </trkpt>
      <trkpt lat="44.00374" lon="5.90807">
        <ele>698.3</ele>
        <time>2024-11-27T13:23:06+01:00</time>
      </trkpt>
      <trkpt lat="44.00365" lon="5.90806">
        <ele>699.5</ele>
        <time>2024-11-27T13:23:48+01:00</time>
      </trkpt>
      <trkpt lat="44.00357" lon="5.90799">
        <ele>698.5</ele>
        <time>2024-11-27T13:24:06+01:00</time>
      </trkpt>
      <trkpt lat="44.00351" lon="5.9079">
        <ele>697.3</ele>
        <time>2024-11-27T13:25:18+01:00</time>
      </trkpt>
      <trkpt lat="44.00348" lon="5.90778">
        <ele>696.4</ele>
        <time>2024-11-27T13:27:00+01:00</time>
      </trkpt>
      <trkpt lat="44.00341" lon="5.90769">
        <ele>695.2</ele>
        <time>2024-11-27T13:27:48+01:00</time>
      </trkpt>
      <trkpt lat="44.00333" lon="5.90763">
        <ele>695.3</ele>
        <time>2024-11-27T13:28:06+01:00</time>
      </trkpt>
      <trkpt lat="44.00325" lon="5.90758">
        <ele>694.9</ele>
        <time>2024-11-27T13:28:18+01:00</time>
      </trkpt>
      <trkpt lat="44.00317" lon="5.90752">
        <ele>695.2</ele>
        <time>2024-11-27T13:28:30+01:00</time>
      </trkpt>
      <trkpt lat="44.00309" lon="5.90746">
        <ele>695.2</ele>
        <time>2024-11-27T13:28:42+01:00</time>
      </trkpt>
      <trkpt lat="44.00302" lon="5.9074">
        <ele>694.3</ele>
        <time>2024-11-27T13:29:00+01:00</time>
      </trkpt>
      <trkpt lat="44.00294" lon="5.90732">
        <ele>693.8</ele>
        <time>2024-11-27T13:29:15+01:00</time>
      </trkpt>
      <trkpt lat="44.00286" lon="5.90723">
        <ele>694.7</ele>
        <time>2024-11-27T13:29:48+01:00</time>
      </trkpt>
      <trkpt lat="44.00277" lon="5.90717">
        <ele>695.4</ele>
        <time>2024-11-27T13:30:03+01:00</time>
      </trkpt>
      <trkpt lat="44.00269" lon="5.90711">
        <ele>694.3</ele>
        <time>2024-11-27T13:30:30+01:00</time>
      </trkpt>
      <trkpt lat="44.0026" lon="5.90709">
        <ele>694.7</ele>
        <time>2024-11-27T13:31:39+01:00</time>
      </trkpt>
      <trkpt lat="44.0025" lon="5.90706">
        <ele>695.6</ele>
        <time>2024-11-27T13:31:51+01:00</time>
      </trkpt>
      <trkpt lat="44.00241" lon="5.90703">
        <ele>694.7</ele>
        <time>2024-11-27T13:32:06+01:00</time>
      </trkpt>
      <trkpt lat="44.0023" lon="5.907">
        <ele>693.7</ele>
        <time>2024-11-27T13:32:21+01:00</time>
      </trkpt>
      <trkpt lat="44.00221" lon="5.907">
        <ele>692.7</ele>
        <time>2024-11-27T13:32:39+01:00</time>
      </trkpt>
      <trkpt lat="44.00224" lon="5.90697">
        <ele>693.1</ele>
        <time>2024-11-27T13:34:54+01:00</time>
      </trkpt>
      <trkpt lat="44.00218" lon="5.90703">
        <ele>692.3</ele>
        <time>2024-11-27T13:36:12+01:00</time>
      </trkpt>
      <trkpt lat="44.00211" lon="5.907">
        <ele>691.6</ele>
        <time>2024-11-27T13:40:03+01:00</time>
      </trkpt>
      <trkpt lat="44.00205" lon="5.90708">
        <ele>690.9</ele>
        <time>2024-11-27T13:43:06+01:00</time>
      </trkpt>
      <trkpt lat="44.00197" lon="5.90705">
        <ele>690.2</ele>
        <time>2024-11-27T13:43:15+01:00</time>
      </trkpt>
      <trkpt lat="44.00188" lon="5.90696">
        <ele>689.3</ele>
        <time>2024-11-27T13:43:24+01:00</time>
      </trkpt>
      <trkpt lat="44.00181" lon="5.90688">
        <ele>688.8</ele>
        <time>2024-11-27T13:43:32+01:00</time>
      </trkpt>
      <trkpt lat="44.00173" lon="5.90683">
        <ele>688.1</ele>
        <time>2024-11-27T13:43:41+01:00</time>
      </trkpt>
      <trkpt lat="44.00164" lon="5.90675">
        <ele>687.4</ele>
        <time>2024-11-27T13:43:50+01:00</time>
      </trkpt>
      <trkpt lat="44.00155" lon="5.90664">
        <ele>687</ele>
        <time>2024-11-27T13:44:00+01:00</time>
      </trkpt>
      <trkpt lat="44.00147" lon="5.90655">
        <ele>686.7</ele>
        <time>2024-11-27T13:44:09+01:00</time>
      </trkpt>
      <trkpt lat="44.00139" lon="5.90649">
        <ele>686.2</ele>
        <time>2024-11-27T13:44:20+01:00</time>
      </trkpt>
      <trkpt lat="44.00131" lon="5.90644">
        <ele>686</ele>
        <time>2024-11-27T13:44:29+01:00</time>
      </trkpt>
      <trkpt lat="44.00122" lon="5.90637">
        <ele>685.8</ele>
        <time>2024-11-27T13:44:41+01:00</time>
      </trkpt>
      <trkpt lat="44.00113" lon="5.90631">
        <ele>685.4</ele>
        <time>2024-11-27T13:44:51+01:00</time>
      </trkpt>
      <trkpt lat="44.00104" lon="5.90621">
        <ele>685</ele>
        <time>2024-11-27T13:46:53+01:00</time>
      </trkpt>
      <trkpt lat="44.00096" lon="5.90612">
        <ele>684.8</ele>
        <time>2024-11-27T13:47:02+01:00</time>
      </trkpt>
      <trkpt lat="44.00087" lon="5.90605">
        <ele>684.5</ele>
        <time>2024-11-27T13:47:15+01:00</time>
      </trkpt>
      <trkpt lat="44.0008" lon="5.90597">
        <ele>684.3</ele>
        <time>2024-11-27T13:47:23+01:00</time>
      </trkpt>
      <trkpt lat="44.00072" lon="5.90587">
        <ele>684.4</ele>
        <time>2024-11-27T13:47:32+01:00</time>
      </trkpt>
      <trkpt lat="44.00064" lon="5.90578">
        <ele>684.6</ele>
        <time>2024-11-27T13:47:42+01:00</time>
      </trkpt>
      <trkpt lat="44.00059" lon="5.90566">
        <ele>684.8</ele>
        <time>2024-11-27T13:47:54+01:00</time>
      </trkpt>
      <trkpt lat="44.00053" lon="5.90557">
        <ele>684.6</ele>
        <time>2024-11-27T13:48:02+01:00</time>
      </trkpt>
      <trkpt lat="44.00044" lon="5.90552">
        <ele>683.9</ele>
        <time>2024-11-27T13:48:14+01:00</time>
      </trkpt>
      <trkpt lat="44.00034" lon="5.90544">
        <ele>683.1</ele>
        <time>2024-11-27T13:48:30+01:00</time>
      </trkpt>
      <trkpt lat="44.00024" lon="5.90537">
        <ele>682.3</ele>
        <time>2024-11-27T13:48:42+01:00</time>
      </trkpt>
      <trkpt lat="44.00015" lon="5.90531">
        <ele>681.5</ele>
        <time>2024-11-27T13:48:53+01:00</time>
      </trkpt>
      <trkpt lat="44.00005" lon="5.90524">
        <ele>680.7</ele>
        <time>2024-11-27T13:49:05+01:00</time>
      </trkpt>
      <trkpt lat="43.99996" lon="5.90525">
        <ele>679.8</ele>
        <time>2024-11-27T13:49:18+01:00</time>
      </trkpt>
      <trkpt lat="43.99986" lon="5.90527">
        <ele>679</ele>
        <time>2024-11-27T13:49:29+01:00</time>
      </trkpt>
      <trkpt lat="43.99978" lon="5.90525">
        <ele>678.4</ele>
        <time>2024-11-27T13:49:38+01:00</time>
      </trkpt>
      <trkpt lat="43.99969" lon="5.90527">
        <ele>677.7</ele>
        <time>2024-11-27T13:49:50+01:00</time>
      </trkpt>
      <trkpt lat="43.99961" lon="5.90531">
        <ele>676.7</ele>
        <time>2024-11-27T13:50:00+01:00</time>
      </trkpt>
      <trkpt lat="43.99952" lon="5.90534">
        <ele>675.8</ele>
        <time>2024-11-27T13:50:11+01:00</time>
      </trkpt>
      <trkpt lat="43.99943" lon="5.90536">
        <ele>674.9</ele>
        <time>2024-11-27T13:50:23+01:00</time>
      </trkpt>
      <trkpt lat="43.99934" lon="5.90541">
        <ele>673.7</ele>
        <time>2024-11-27T13:50:35+01:00</time>
      </trkpt>
      <trkpt lat="43.99925" lon="5.90544">
        <ele>672.4</ele>
        <time>2024-11-27T13:50:47+01:00</time>
      </trkpt>
      <trkpt lat="43.99915" lon="5.90548">
        <ele>671.1</ele>
        <time>2024-11-27T13:50:59+01:00</time>
      </trkpt>
      <trkpt lat="43.99905" lon="5.90552">
        <ele>670.3</ele>
        <time>2024-11-27T13:51:08+01:00</time>
      </trkpt>
      <trkpt lat="43.99895" lon="5.90554">
        <ele>669.5</ele>
        <time>2024-11-27T13:51:17+01:00</time>
      </trkpt>
      <trkpt lat="43.99886" lon="5.90557">
        <ele>668.9</ele>
        <time>2024-11-27T13:54:20+01:00</time>
      </trkpt>
      <trkpt lat="43.99875" lon="5.90566">
        <ele>668.1</ele>
        <time>2024-11-27T13:54:29+01:00</time>
      </trkpt>
      <trkpt lat="43.99866" lon="5.90572">
        <ele>667.2</ele>
        <time>2024-11-27T13:54:38+01:00</time>
      </trkpt>
      <trkpt lat="43.99856" lon="5.9057">
        <ele>666.8</ele>
        <time>2024-11-27T13:54:48+01:00</time>
      </trkpt>
      <trkpt lat="43.99844" lon="5.90569">
        <ele>666.4</ele>
        <time>2024-11-27T13:54:57+01:00</time>
      </trkpt>
      <trkpt lat="43.99839" lon="5.90581">
        <ele>665.4</ele>
        <time>2024-11-27T13:55:15+01:00</time>
      </trkpt>
      <trkpt lat="43.99839" lon="5.90596">
        <ele>664.8</ele>
        <time>2024-11-27T13:55:27+01:00</time>
      </trkpt>
      <trkpt lat="43.99839" lon="5.90609">
        <ele>664.3</ele>
        <time>2024-11-27T13:55:36+01:00</time>
      </trkpt>
      <trkpt lat="43.99839" lon="5.90623">
        <ele>663.5</ele>
        <time>2024-11-27T13:55:45+01:00</time>
      </trkpt>
      <trkpt lat="43.99838" lon="5.90635">
        <ele>662.6</ele>
        <time>2024-11-27T13:55:54+01:00</time>
      </trkpt>
      <trkpt lat="43.99839" lon="5.90649">
        <ele>662.1</ele>
        <time>2024-11-27T13:56:02+01:00</time>
      </trkpt>
      <trkpt lat="43.99842" lon="5.90664">
        <ele>662</ele>
        <time>2024-11-27T13:56:15+01:00</time>
      </trkpt>
      <trkpt lat="43.99844" lon="5.90678">
        <ele>662.1</ele>
        <time>2024-11-27T13:56:24+01:00</time>
      </trkpt>
      <trkpt lat="43.99841" lon="5.90691">
        <ele>661.9</ele>
        <time>2024-11-27T13:56:32+01:00</time>
      </trkpt>
      <trkpt lat="43.99838" lon="5.90703">
        <ele>661.5</ele>
        <time>2024-11-27T13:56:42+01:00</time>
      </trkpt>
      <trkpt lat="43.99834" lon="5.90716">
        <ele>661.1</ele>
        <time>2024-11-27T13:56:51+01:00</time>
      </trkpt>
      <trkpt lat="43.99831" lon="5.90729">
        <ele>660.7</ele>
        <time>2024-11-27T13:56:59+01:00</time>
      </trkpt>
      <trkpt lat="43.99829" lon="5.90742">
        <ele>660.6</ele>
        <time>2024-11-27T13:57:08+01:00</time>
      </trkpt>
      <trkpt lat="43.99827" lon="5.90755">
        <ele>660.5</ele>
        <time>2024-11-27T13:57:18+01:00</time>
      </trkpt>
      <trkpt lat="43.99826" lon="5.90769">
        <ele>660.2</ele>
        <time>2024-11-27T13:57:26+01:00</time>
      </trkpt>
      <trkpt lat="43.99824" lon="5.90784">
        <ele>659.9</ele>
        <time>2024-11-27T13:57:36+01:00</time>
      </trkpt>
      <trkpt lat="43.99824" lon="5.90799">
        <ele>659.5</ele>
        <time>2024-11-27T13:57:47+01:00</time>
      </trkpt>
      <trkpt lat="43.99827" lon="5.90812">
        <ele>659.3</ele>
        <time>2024-11-27T13:58:29+01:00</time>
      </trkpt>
      <trkpt lat="43.99829" lon="5.90826">
        <ele>659</ele>
        <time>2024-11-27T13:58:38+01:00</time>
      </trkpt>
      <trkpt lat="43.99818" lon="5.90839">
        <ele>657.5</ele>
        <time>2024-11-27T13:58:44+01:00</time>
      </trkpt>
      <trkpt lat="43.99799" lon="5.90837">
        <ele>655.9</ele>
        <time>2024-11-27T13:58:47+01:00</time>
      </trkpt>
      <trkpt lat="43.99803" lon="5.90817">
        <ele>657.4</ele>
        <time>2024-11-27T13:58:50+01:00</time>
      </trkpt>
      <trkpt lat="43.99821" lon="5.90787">
        <ele>659.5</ele>
        <time>2024-11-27T13:58:53+01:00</time>
      </trkpt>
      <trkpt lat="43.99855" lon="5.90766">
        <ele>661.8</ele>
        <time>2024-11-27T13:59:00+01:00</time>
      </trkpt>
      <trkpt lat="43.99826" lon="5.90782">
        <ele>660.1</ele>
        <time>2024-11-27T13:59:43+01:00</time>
      </trkpt>
      <trkpt lat="43.99837" lon="5.90777">
        <ele>661.1</ele>
        <time>2024-11-27T14:00:26+01:00</time>
      </trkpt>
      <trkpt lat="43.99858" lon="5.90759">
        <ele>661.9</ele>
        <time>2024-11-27T14:00:28+01:00</time>
      </trkpt>
      <trkpt lat="43.99823" lon="5.90789">
        <ele>659.7</ele>
        <time>2024-11-27T14:02:40+01:00</time>
      </trkpt>
      <trkpt lat="43.99812" lon="5.90788">
        <ele>658.6</ele>
        <time>2024-11-27T14:02:43+01:00</time>
      </trkpt>
      <trkpt lat="43.998" lon="5.90795">
        <ele>657.6</ele>
        <time>2024-11-27T14:02:49+01:00</time>
      </trkpt>
      <trkpt lat="43.99779" lon="5.90813">
        <ele>655.9</ele>
        <time>2024-11-27T14:03:01+01:00</time>
      </trkpt>
      <trkpt lat="43.99769" lon="5.9083">
        <ele>653.1</ele>
        <time>2024-11-27T14:03:04+01:00</time>
      </trkpt>
      <trkpt lat="43.99776" lon="5.90843">
        <ele>649.6</ele>
        <time>2024-11-27T14:03:14+01:00</time>
      </trkpt>
      <trkpt lat="43.99787" lon="5.90851">
        <ele>649.5</ele>
        <time>2024-11-27T14:03:16+01:00</time>
      </trkpt>
      <trkpt lat="43.99806" lon="5.90846">
        <ele>656.2</ele>
        <time>2024-11-27T14:03:20+01:00</time>
      </trkpt>
      <trkpt lat="43.99814" lon="5.90831">
        <ele>657.7</ele>
        <time>2024-11-27T14:03:23+01:00</time>
      </trkpt>
      <trkpt lat="43.99818" lon="5.90816">
        <ele>658.5</ele>
        <time>2024-11-27T14:03:26+01:00</time>
      </trkpt>
      <trkpt lat="43.99819" lon="5.90802">
        <ele>659</ele>
        <time>2024-11-27T14:03:51+01:00</time>
      </trkpt>
      <trkpt lat="43.9982" lon="5.90789">
        <ele>659.4</ele>
        <time>2024-11-27T14:04:27+01:00</time>
      </trkpt>
      <trkpt lat="43.99821" lon="5.90779">
        <ele>659.7</ele>
        <time>2024-11-27T14:06:51+01:00</time>
      </trkpt>
      <trkpt lat="43.99828" lon="5.90782">
        <ele>660.3</ele>
        <time>2024-11-27T14:08:37+01:00</time>
      </trkpt>
      <trkpt lat="43.99831" lon="5.90795">
        <ele>660.2</ele>
        <time>2024-11-27T14:08:46+01:00</time>
      </trkpt>
      <trkpt lat="43.99832" lon="5.90807">
        <ele>659.9</ele>
        <time>2024-11-27T14:08:58+01:00</time>
      </trkpt>
      <trkpt lat="43.99836" lon="5.9082">
        <ele>659.6</ele>
        <time>2024-11-27T14:09:07+01:00</time>
      </trkpt>
      <trkpt lat="43.99842" lon="5.90831">
        <ele>659.4</ele>
        <time>2024-11-27T14:09:19+01:00</time>
      </trkpt>
      <trkpt lat="43.99852" lon="5.90837">
        <ele>659.5</ele>
        <time>2024-11-27T14:09:28+01:00</time>
      </trkpt>
      <trkpt lat="43.99858" lon="5.90847">
        <ele>659.4</ele>
        <time>2024-11-27T14:09:37+01:00</time>
      </trkpt>
      <trkpt lat="43.99864" lon="5.90859">
        <ele>659.3</ele>
        <time>2024-11-27T14:09:46+01:00</time>
      </trkpt>
      <trkpt lat="43.9987" lon="5.90875">
        <ele>658.8</ele>
        <time>2024-11-27T14:10:01+01:00</time>
      </trkpt>
      <trkpt lat="43.99875" lon="5.90887">
        <ele>658.6</ele>
        <time>2024-11-27T14:10:13+01:00</time>
      </trkpt>
      <trkpt lat="43.99881" lon="5.90896">
        <ele>658.6</ele>
        <time>2024-11-27T14:10:40+01:00</time>
      </trkpt>
      <trkpt lat="43.99885" lon="5.90909">
        <ele>658.5</ele>
        <time>2024-11-27T14:10:49+01:00</time>
      </trkpt>
      <trkpt lat="43.9989" lon="5.90921">
        <ele>659.1</ele>
        <time>2024-11-27T14:10:58+01:00</time>
      </trkpt>
      <trkpt lat="43.99895" lon="5.90933">
        <ele>659.5</ele>
        <time>2024-11-27T14:11:07+01:00</time>
      </trkpt>
      <trkpt lat="43.999" lon="5.90946">
        <ele>659.7</ele>
        <time>2024-11-27T14:11:16+01:00</time>
      </trkpt>
      <trkpt lat="43.99904" lon="5.90959">
        <ele>659.3</ele>
        <time>2024-11-27T14:11:28+01:00</time>
      </trkpt>
      <trkpt lat="43.99909" lon="5.90971">
        <ele>659.3</ele>
        <time>2024-11-27T14:11:37+01:00</time>
      </trkpt>
      <trkpt lat="43.99914" lon="5.90983">
        <ele>658.8</ele>
        <time>2024-11-27T14:11:49+01:00</time>
      </trkpt>
      <trkpt lat="43.99919" lon="5.90995">
        <ele>659.3</ele>
        <time>2024-11-27T14:11:58+01:00</time>
      </trkpt>
      <trkpt lat="43.99924" lon="5.91009">
        <ele>656.2</ele>
        <time>2024-11-27T14:12:13+01:00</time>
      </trkpt>
      <trkpt lat="43.9993" lon="5.91019">
        <ele>653.9</ele>
        <time>2024-11-27T14:12:37+01:00</time>
      </trkpt>
      <trkpt lat="43.99934" lon="5.91026">
        <ele>653.2</ele>
        <time>2024-11-27T14:13:06+01:00</time>
      </trkpt>
      <trkpt lat="43.99931" lon="5.91017">
        <ele>654.9</ele>
        <time>2024-11-27T14:14:49+01:00</time>
      </trkpt>
      <trkpt lat="43.99927" lon="5.91006">
        <ele>657.8</ele>
        <time>2024-11-27T14:15:01+01:00</time>
      </trkpt>
      <trkpt lat="43.99922" lon="5.90996">
        <ele>659.6</ele>
        <time>2024-11-27T14:15:19+01:00</time>
      </trkpt>
      <trkpt lat="43.99917" lon="5.90985">
        <ele>659.6</ele>
        <time>2024-11-27T14:15:34+01:00</time>
      </trkpt>
      <trkpt lat="43.99913" lon="5.90974">
        <ele>659.5</ele>
        <time>2024-11-27T14:15:43+01:00</time>
      </trkpt>
      <trkpt lat="43.99909" lon="5.9096">
        <ele>659.7</ele>
        <time>2024-11-27T14:15:55+01:00</time>
      </trkpt>
      <trkpt lat="43.99904" lon="5.90947">
        <ele>659.9</ele>
        <time>2024-11-27T14:16:04+01:00</time>
      </trkpt>
      <trkpt lat="43.99899" lon="5.90935">
        <ele>659.9</ele>
        <time>2024-11-27T14:16:13+01:00</time>
      </trkpt>
      <trkpt lat="43.99894" lon="5.90923">
        <ele>659.5</ele>
        <time>2024-11-27T14:16:23+01:00</time>
      </trkpt>
      <trkpt lat="43.99889" lon="5.90911">
        <ele>659.2</ele>
        <time>2024-11-27T14:16:32+01:00</time>
      </trkpt>
      <trkpt lat="43.99884" lon="5.90899">
        <ele>658.9</ele>
        <time>2024-11-27T14:16:40+01:00</time>
      </trkpt>
      <trkpt lat="43.9988" lon="5.90887">
        <ele>659.1</ele>
        <time>2024-11-27T14:16:49+01:00</time>
      </trkpt>
      <trkpt lat="43.99875" lon="5.90875">
        <ele>659.2</ele>
        <time>2024-11-27T14:17:01+01:00</time>
      </trkpt>
      <trkpt lat="43.99864" lon="5.90869">
        <ele>658.7</ele>
        <time>2024-11-27T14:17:17+01:00</time>
      </trkpt>
      <trkpt lat="43.99853" lon="5.90867">
        <ele>657.6</ele>
        <time>2024-11-27T14:17:29+01:00</time>
      </trkpt>
      <trkpt lat="43.99845" lon="5.90869">
        <ele>655.9</ele>
        <time>2024-11-27T14:17:53+01:00</time>
      </trkpt>
      <trkpt lat="43.99843" lon="5.90882">
        <ele>652.3</ele>
        <time>2024-11-27T14:18:50+01:00</time>
      </trkpt>
      <trkpt lat="43.99847" lon="5.90895">
        <ele>649.9</ele>
        <time>2024-11-27T14:19:08+01:00</time>
      </trkpt>
      <trkpt lat="43.99853" lon="5.90907">
        <ele>649.6</ele>
        <time>2024-11-27T14:19:26+01:00</time>
      </trkpt>
      <trkpt lat="43.99858" lon="5.90917">
        <ele>650.1</ele>
        <time>2024-11-27T14:19:47+01:00</time>
      </trkpt>
      <trkpt lat="43.99863" lon="5.90929">
        <ele>648.2</ele>
        <time>2024-11-27T14:20:05+01:00</time>
      </trkpt>
      <trkpt lat="43.99868" lon="5.90941">
        <ele>646.9</ele>
        <time>2024-11-27T14:20:26+01:00</time>
      </trkpt>
      <trkpt lat="43.99873" lon="5.90953">
        <ele>647.7</ele>
        <time>2024-11-27T14:20:44+01:00</time>
      </trkpt>
      <trkpt lat="43.99879" lon="5.90964">
        <ele>649.7</ele>
        <time>2024-11-27T14:20:56+01:00</time>
      </trkpt>
      <trkpt lat="43.99886" lon="5.90976">
        <ele>651.6</ele>
        <time>2024-11-27T14:21:05+01:00</time>
      </trkpt>
      <trkpt lat="43.99891" lon="5.90987">
        <ele>648.4</ele>
        <time>2024-11-27T14:21:17+01:00</time>
      </trkpt>
      <trkpt lat="43.99898" lon="5.90997">
        <ele>646.9</ele>
        <time>2024-11-27T14:21:29+01:00</time>
      </trkpt>
      <trkpt lat="43.99906" lon="5.91006">
        <ele>649.3</ele>
        <time>2024-11-27T14:21:47+01:00</time>
      </trkpt>
      <trkpt lat="43.99914" lon="5.91013">
        <ele>651.7</ele>
        <time>2024-11-27T14:22:04+01:00</time>
      </trkpt>
      <trkpt lat="43.99919" lon="5.91023">
        <ele>648.9</ele>
        <time>2024-11-27T14:22:17+01:00</time>
      </trkpt>
      <trkpt lat="43.99925" lon="5.91033">
        <ele>646.6</ele>
        <time>2024-11-27T14:22:29+01:00</time>
      </trkpt>
      <trkpt lat="43.99932" lon="5.91041">
        <ele>644.4</ele>
        <time>2024-11-27T14:22:38+01:00</time>
      </trkpt>
      <trkpt lat="43.99941" lon="5.91046">
        <ele>644</ele>
        <time>2024-11-27T14:22:53+01:00</time>
      </trkpt>
      <trkpt lat="43.9995" lon="5.91048">
        <ele>645.4</ele>
        <time>2024-11-27T14:23:05+01:00</time>
      </trkpt>
      <trkpt lat="43.99959" lon="5.91052">
        <ele>644.1</ele>
        <time>2024-11-27T14:23:19+01:00</time>
      </trkpt>
      <trkpt lat="43.99968" lon="5.91058">
        <ele>643.2</ele>
        <time>2024-11-27T14:23:34+01:00</time>
      </trkpt>
      <trkpt lat="43.99977" lon="5.9106">
        <ele>644.7</ele>
        <time>2024-11-27T14:23:43+01:00</time>
      </trkpt>
      <trkpt lat="43.99985" lon="5.91066">
        <ele>644.8</ele>
        <time>2024-11-27T14:23:58+01:00</time>
      </trkpt>
      <trkpt lat="43.99992" lon="5.91076">
        <ele>641.7</ele>
        <time>2024-11-27T14:24:11+01:00</time>
      </trkpt>
      <trkpt lat="43.99998" lon="5.91085">
        <ele>638.2</ele>
        <time>2024-11-27T14:24:23+01:00</time>
      </trkpt>
      <trkpt lat="44.00006" lon="5.91088">
        <ele>638.1</ele>
        <time>2024-11-27T14:24:35+01:00</time>
      </trkpt>
      <trkpt lat="44.00015" lon="5.91093">
        <ele>637.8</ele>
        <time>2024-11-27T14:24:44+01:00</time>
      </trkpt>
      <trkpt lat="44.00024" lon="5.91102">
        <ele>635.6</ele>
        <time>2024-11-27T14:24:59+01:00</time>
      </trkpt>
      <trkpt lat="44.00034" lon="5.91109">
        <ele>633.5</ele>
        <time>2024-11-27T14:25:13+01:00</time>
      </trkpt>
      <trkpt lat="44.00043" lon="5.91116">
        <ele>631.6</ele>
        <time>2024-11-27T14:25:28+01:00</time>
      </trkpt>
      <trkpt lat="44.00053" lon="5.9112">
        <ele>630.5</ele>
        <time>2024-11-27T14:25:40+01:00</time>
      </trkpt>
      <trkpt lat="44.00061" lon="5.9112">
        <ele>630.6</ele>
        <time>2024-11-27T14:25:49+01:00</time>
      </trkpt>
      <trkpt lat="44.0007" lon="5.91124">
        <ele>628.8</ele>
        <time>2024-11-27T14:25:58+01:00</time>
      </trkpt>
      <trkpt lat="44.0008" lon="5.91125">
        <ele>628.3</ele>
        <time>2024-11-27T14:26:10+01:00</time>
      </trkpt>
      <trkpt lat="44.0009" lon="5.91125">
        <ele>627.8</ele>
        <time>2024-11-27T14:26:22+01:00</time>
      </trkpt>
      <trkpt lat="44.001" lon="5.91127">
        <ele>626.9</ele>
        <time>2024-11-27T14:26:37+01:00</time>
      </trkpt>
      <trkpt lat="44.00109" lon="5.9113">
        <ele>625.5</ele>
        <time>2024-11-27T14:27:22+01:00</time>
      </trkpt>
      <trkpt lat="44.00117" lon="5.91137">
        <ele>623</ele>
        <time>2024-11-27T14:27:43+01:00</time>
      </trkpt>
      <trkpt lat="44.00125" lon="5.91141">
        <ele>621.7</ele>
        <time>2024-11-27T14:27:55+01:00</time>
      </trkpt>
      <trkpt lat="44.00133" lon="5.91146">
        <ele>620.5</ele>
        <time>2024-11-27T14:28:11+01:00</time>
      </trkpt>
      <trkpt lat="44.00141" lon="5.91154">
        <ele>617.9</ele>
        <time>2024-11-27T14:28:28+01:00</time>
      </trkpt>
      <trkpt lat="44.00151" lon="5.91161">
        <ele>614.7</ele>
        <time>2024-11-27T14:28:43+01:00</time>
      </trkpt>
      <trkpt lat="44.0016" lon="5.91166">
        <ele>612.2</ele>
        <time>2024-11-27T14:29:01+01:00</time>
      </trkpt>
      <trkpt lat="44.00169" lon="5.91171">
        <ele>609.4</ele>
        <time>2024-11-27T14:29:16+01:00</time>
      </trkpt>
      <trkpt lat="44.00177" lon="5.91174">
        <ele>607.6</ele>
        <time>2024-11-27T14:29:28+01:00</time>
      </trkpt>
      <trkpt lat="44.00186" lon="5.91176">
        <ele>606</ele>
        <time>2024-11-27T14:29:40+01:00</time>
      </trkpt>
      <trkpt lat="44.00195" lon="5.91178">
        <ele>604.1</ele>
        <time>2024-11-27T14:29:59+01:00</time>
      </trkpt>
      <trkpt lat="44.00206" lon="5.91177">
        <ele>602.5</ele>
        <time>2024-11-27T14:30:13+01:00</time>
      </trkpt>
      <trkpt lat="44.00215" lon="5.91178">
        <ele>600.4</ele>
        <time>2024-11-27T14:30:26+01:00</time>
      </trkpt>
      <trkpt lat="44.00225" lon="5.91178">
        <ele>598.5</ele>
        <time>2024-11-27T14:30:44+01:00</time>
      </trkpt>
      <trkpt lat="44.00234" lon="5.91179">
        <ele>596.6</ele>
        <time>2024-11-27T14:30:55+01:00</time>
      </trkpt>
      <trkpt lat="44.00244" lon="5.91176">
        <ele>596.2</ele>
        <time>2024-11-27T14:31:04+01:00</time>
      </trkpt>
      <trkpt lat="44.00255" lon="5.91174">
        <ele>596.3</ele>
        <time>2024-11-27T14:31:17+01:00</time>
      </trkpt>
      <trkpt lat="44.00264" lon="5.91174">
        <ele>595.9</ele>
        <time>2024-11-27T14:31:26+01:00</time>
      </trkpt>
      <trkpt lat="44.00275" lon="5.91177">
        <ele>594.9</ele>
        <time>2024-11-27T14:31:38+01:00</time>
      </trkpt>
      <trkpt lat="44.00285" lon="5.91182">
        <ele>594.1</ele>
        <time>2024-11-27T14:31:47+01:00</time>
      </trkpt>
      <trkpt lat="44.00295" lon="5.9119">
        <ele>592.5</ele>
        <time>2024-11-27T14:32:00+01:00</time>
      </trkpt>
      <trkpt lat="44.00304" lon="5.91197">
        <ele>591.9</ele>
        <time>2024-11-27T14:32:12+01:00</time>
      </trkpt>
      <trkpt lat="44.00312" lon="5.91204">
        <ele>591.5</ele>
        <time>2024-11-27T14:32:24+01:00</time>
      </trkpt>
      <trkpt lat="44.0032" lon="5.91214">
        <ele>590.5</ele>
        <time>2024-11-27T14:32:36+01:00</time>
      </trkpt>
      <trkpt lat="44.00329" lon="5.91221">
        <ele>590.4</ele>
        <time>2024-11-27T14:32:45+01:00</time>
      </trkpt>
      <trkpt lat="44.00338" lon="5.91226">
        <ele>590.7</ele>
        <time>2024-11-27T14:32:54+01:00</time>
      </trkpt>
      <trkpt lat="44.00348" lon="5.91232">
        <ele>591</ele>
        <time>2024-11-27T14:33:03+01:00</time>
      </trkpt>
      <trkpt lat="44.00357" lon="5.91239">
        <ele>590.6</ele>
        <time>2024-11-27T14:33:14+01:00</time>
      </trkpt>
      <trkpt lat="44.00367" lon="5.91246">
        <ele>590.7</ele>
        <time>2024-11-27T14:33:26+01:00</time>
      </trkpt>
      <trkpt lat="44.00374" lon="5.91254">
        <ele>590.2</ele>
        <time>2024-11-27T14:33:35+01:00</time>
      </trkpt>
      <trkpt lat="44.00381" lon="5.91263">
        <ele>589.4</ele>
        <time>2024-11-27T14:33:44+01:00</time>
      </trkpt>
      <trkpt lat="44.0039" lon="5.91271">
        <ele>589.1</ele>
        <time>2024-11-27T14:33:56+01:00</time>
      </trkpt>
      <trkpt lat="44.00399" lon="5.91277">
        <ele>589.4</ele>
        <time>2024-11-27T14:34:08+01:00</time>
      </trkpt>
      <trkpt lat="44.00408" lon="5.91286">
        <ele>589.3</ele>
        <time>2024-11-27T14:34:17+01:00</time>
      </trkpt>
      <trkpt lat="44.00417" lon="5.91293">
        <ele>589.8</ele>
        <time>2024-11-27T14:34:26+01:00</time>
      </trkpt>
      <trkpt lat="44.00425" lon="5.91302">
        <ele>590</ele>
        <time>2024-11-27T14:34:38+01:00</time>
      </trkpt>
      <trkpt lat="44.0043" lon="5.91313">
        <ele>589.2</ele>
        <time>2024-11-27T14:34:47+01:00</time>
      </trkpt>
      <trkpt lat="44.00433" lon="5.91326">
        <ele>588.3</ele>
        <time>2024-11-27T14:35:47+01:00</time>
      </trkpt>
      <trkpt lat="44.00438" lon="5.91337">
        <ele>588.6</ele>
        <time>2024-11-27T14:36:05+01:00</time>
      </trkpt>
      <trkpt lat="44.00446" lon="5.91347">
        <ele>590.3</ele>
        <time>2024-11-27T14:36:21+01:00</time>
      </trkpt>
      <trkpt lat="44.00454" lon="5.91355">
        <ele>590.9</ele>
        <time>2024-11-27T14:36:32+01:00</time>
      </trkpt>
      <trkpt lat="44.00464" lon="5.91361">
        <ele>591.2</ele>
        <time>2024-11-27T14:36:44+01:00</time>
      </trkpt>
      <trkpt lat="44.00474" lon="5.91367">
        <ele>591.1</ele>
        <time>2024-11-27T14:36:56+01:00</time>
      </trkpt>
      <trkpt lat="44.00484" lon="5.91371">
        <ele>591.4</ele>
        <time>2024-11-27T14:37:08+01:00</time>
      </trkpt>
      <trkpt lat="44.00494" lon="5.91372">
        <ele>592.3</ele>
        <time>2024-11-27T14:37:20+01:00</time>
      </trkpt>
      <trkpt lat="44.00503" lon="5.91372">
        <ele>592.8</ele>
        <time>2024-11-27T14:37:29+01:00</time>
      </trkpt>
      <trkpt lat="44.00513" lon="5.91376">
        <ele>591.8</ele>
        <time>2024-11-27T14:37:41+01:00</time>
      </trkpt>
      <trkpt lat="44.00522" lon="5.91384">
        <ele>590</ele>
        <time>2024-11-27T14:38:02+01:00</time>
      </trkpt>
      <trkpt lat="44.00528" lon="5.91394">
        <ele>588</ele>
        <time>2024-11-27T14:38:15+01:00</time>
      </trkpt>
      <trkpt lat="44.00535" lon="5.91404">
        <ele>586.1</ele>
        <time>2024-11-27T14:38:30+01:00</time>
      </trkpt>
      <trkpt lat="44.00543" lon="5.9141">
        <ele>585</ele>
        <time>2024-11-27T14:38:48+01:00</time>
      </trkpt>
      <trkpt lat="44.0055" lon="5.91408">
        <ele>585.1</ele>
        <time>2024-11-27T14:39:45+01:00</time>
      </trkpt>
      <trkpt lat="44.0055" lon="5.91418">
        <ele>583.9</ele>
        <time>2024-11-27T14:40:24+01:00</time>
      </trkpt>
      <trkpt lat="44.00552" lon="5.9143">
        <ele>582.1</ele>
        <time>2024-11-27T14:41:51+01:00</time>
      </trkpt>
      <trkpt lat="44.00554" lon="5.91443">
        <ele>580.3</ele>
        <time>2024-11-27T14:42:03+01:00</time>
      </trkpt>
      <trkpt lat="44.00551" lon="5.91454">
        <ele>579.1</ele>
        <time>2024-11-27T14:42:15+01:00</time>
      </trkpt>
      <trkpt lat="44.00551" lon="5.91465">
        <ele>577.9</ele>
        <time>2024-11-27T14:42:24+01:00</time>
      </trkpt>
      <trkpt lat="44.00558" lon="5.9147">
        <ele>576.6</ele>
        <time>2024-11-27T14:42:33+01:00</time>
      </trkpt>
      <trkpt lat="44.00567" lon="5.91476">
        <ele>574</ele>
        <time>2024-11-27T14:42:41+01:00</time>
      </trkpt>
      <trkpt lat="44.00571" lon="5.91488">
        <ele>571.4</ele>
        <time>2024-11-27T14:42:54+01:00</time>
      </trkpt>
      <trkpt lat="44.00568" lon="5.915">
        <ele>570.5</ele>
        <time>2024-11-27T14:43:09+01:00</time>
      </trkpt>
      <trkpt lat="44.00562" lon="5.91515">
        <ele>569.6</ele>
        <time>2024-11-27T14:43:24+01:00</time>
      </trkpt>
      <trkpt lat="44.00559" lon="5.91524">
        <ele>568.8</ele>
        <time>2024-11-27T14:43:36+01:00</time>
      </trkpt>
      <trkpt lat="44.00566" lon="5.91521">
        <ele>567.6</ele>
        <time>2024-11-27T14:43:51+01:00</time>
      </trkpt>
      <trkpt lat="44.00574" lon="5.91511">
        <ele>567</ele>
        <time>2024-11-27T14:44:03+01:00</time>
      </trkpt>
      <trkpt lat="44.00582" lon="5.91503">
        <ele>566.1</ele>
        <time>2024-11-27T14:44:12+01:00</time>
      </trkpt>
      <trkpt lat="44.00591" lon="5.91494">
        <ele>565.2</ele>
        <time>2024-11-27T14:44:24+01:00</time>
      </trkpt>
      <trkpt lat="44.006" lon="5.91486">
        <ele>564.6</ele>
        <time>2024-11-27T14:44:33+01:00</time>
      </trkpt>
      <trkpt lat="44.00609" lon="5.91478">
        <ele>564.3</ele>
        <time>2024-11-27T14:44:45+01:00</time>
      </trkpt>
      <trkpt lat="44.00618" lon="5.9147">
        <ele>564.1</ele>
        <time>2024-11-27T14:44:54+01:00</time>
      </trkpt>
      <trkpt lat="44.00626" lon="5.91463">
        <ele>563.5</ele>
        <time>2024-11-27T14:45:03+01:00</time>
      </trkpt>
      <trkpt lat="44.00633" lon="5.91454">
        <ele>563.2</ele>
        <time>2024-11-27T14:45:12+01:00</time>
      </trkpt>
      <trkpt lat="44.0064" lon="5.91446">
        <ele>562.4</ele>
        <time>2024-11-27T14:45:21+01:00</time>
      </trkpt>
      <trkpt lat="44.00646" lon="5.91436">
        <ele>561.9</ele>
        <time>2024-11-27T14:45:30+01:00</time>
      </trkpt>
      <trkpt lat="44.00654" lon="5.91427">
        <ele>561.8</ele>
        <time>2024-11-27T14:45:39+01:00</time>
      </trkpt>
      <trkpt lat="44.00663" lon="5.91422">
        <ele>560.7</ele>
        <time>2024-11-27T14:45:48+01:00</time>
      </trkpt>
      <trkpt lat="44.00672" lon="5.91418">
        <ele>559.8</ele>
        <time>2024-11-27T14:45:56+01:00</time>
      </trkpt>
      <trkpt lat="44.00682" lon="5.91415">
        <ele>558.2</ele>
        <time>2024-11-27T14:46:06+01:00</time>
      </trkpt>
      <trkpt lat="44.00691" lon="5.91408">
        <ele>557.1</ele>
        <time>2024-11-27T14:46:18+01:00</time>
      </trkpt>
      <trkpt lat="44.00698" lon="5.91401">
        <ele>555.9</ele>
        <time>2024-11-27T14:46:27+01:00</time>
      </trkpt>
      <trkpt lat="44.00705" lon="5.91393">
        <ele>555.4</ele>
        <time>2024-11-27T14:46:36+01:00</time>
      </trkpt>
      <trkpt lat="44.00715" lon="5.91386">
        <ele>554.7</ele>
        <time>2024-11-27T14:46:48+01:00</time>
      </trkpt>
      <trkpt lat="44.00724" lon="5.91379">
        <ele>554.9</ele>
        <time>2024-11-27T14:46:57+01:00</time>
      </trkpt>
      <trkpt lat="44.00733" lon="5.91375">
        <ele>555.7</ele>
        <time>2024-11-27T14:47:06+01:00</time>
      </trkpt>
      <trkpt lat="44.00743" lon="5.91376">
        <ele>554.2</ele>
        <time>2024-11-27T14:47:18+01:00</time>
      </trkpt>
      <trkpt lat="44.00751" lon="5.91385">
        <ele>551.3</ele>
        <time>2024-11-27T14:47:27+01:00</time>
      </trkpt>
      <trkpt lat="44.00756" lon="5.91397">
        <ele>551</ele>
        <time>2024-11-27T14:47:36+01:00</time>
      </trkpt>
      <trkpt lat="44.00761" lon="5.91408">
        <ele>550.3</ele>
        <time>2024-11-27T14:47:45+01:00</time>
      </trkpt>
      <trkpt lat="44.00768" lon="5.91417">
        <ele>549.7</ele>
        <time>2024-11-27T14:47:54+01:00</time>
      </trkpt>
      <trkpt lat="44.00778" lon="5.91423">
        <ele>548.8</ele>
        <time>2024-11-27T14:48:06+01:00</time>
      </trkpt>
      <trkpt lat="44.00789" lon="5.91422">
        <ele>546.6</ele>
        <time>2024-11-27T14:48:18+01:00</time>
      </trkpt>
      <trkpt lat="44.00798" lon="5.91418">
        <ele>546.4</ele>
        <time>2024-11-27T14:48:27+01:00</time>
      </trkpt>
      <trkpt lat="44.00808" lon="5.91412">
        <ele>546.6</ele>
        <time>2024-11-27T14:48:36+01:00</time>
      </trkpt>
      <trkpt lat="44.00817" lon="5.91415">
        <ele>547.8</ele>
        <time>2024-11-27T14:48:45+01:00</time>
      </trkpt>
      <trkpt lat="44.00826" lon="5.91425">
        <ele>547.1</ele>
        <time>2024-11-27T14:48:54+01:00</time>
      </trkpt>
      <trkpt lat="44.00832" lon="5.91437">
        <ele>546.5</ele>
        <time>2024-11-27T14:49:03+01:00</time>
      </trkpt>
      <trkpt lat="44.00836" lon="5.91451">
        <ele>547</ele>
        <time>2024-11-27T14:49:12+01:00</time>
      </trkpt>
      <trkpt lat="44.00841" lon="5.91465">
        <ele>547.7</ele>
        <time>2024-11-27T14:49:21+01:00</time>
      </trkpt>
      <trkpt lat="44.00844" lon="5.91477">
        <ele>547.8</ele>
        <time>2024-11-27T14:49:30+01:00</time>
      </trkpt>
      <trkpt lat="44.00848" lon="5.9149">
        <ele>547.9</ele>
        <time>2024-11-27T14:49:39+01:00</time>
      </trkpt>
      <trkpt lat="44.00853" lon="5.91502">
        <ele>548.7</ele>
        <time>2024-11-27T14:49:48+01:00</time>
      </trkpt>
      <trkpt lat="44.00858" lon="5.91514">
        <ele>548.6</ele>
        <time>2024-11-27T14:49:56+01:00</time>
      </trkpt>
      <trkpt lat="44.00863" lon="5.91525">
        <ele>548.4</ele>
        <time>2024-11-27T14:50:06+01:00</time>
      </trkpt>
      <trkpt lat="44.0087" lon="5.91535">
        <ele>549.2</ele>
        <time>2024-11-27T14:50:15+01:00</time>
      </trkpt>
      <trkpt lat="44.00877" lon="5.91546">
        <ele>549.3</ele>
        <time>2024-11-27T14:50:24+01:00</time>
      </trkpt>
      <trkpt lat="44.00883" lon="5.91558">
        <ele>548.5</ele>
        <time>2024-11-27T14:50:33+01:00</time>
      </trkpt>
      <trkpt lat="44.00888" lon="5.91568">
        <ele>548.2</ele>
        <time>2024-11-27T14:50:42+01:00</time>
      </trkpt>
      <trkpt lat="44.00895" lon="5.91579">
        <ele>547.5</ele>
        <time>2024-11-27T14:50:51+01:00</time>
      </trkpt>
      <trkpt lat="44.00901" lon="5.9159">
        <ele>547.2</ele>
        <time>2024-11-27T14:51:00+01:00</time>
      </trkpt>
      <trkpt lat="44.00906" lon="5.91599">
        <ele>547.4</ele>
        <time>2024-11-27T14:51:09+01:00</time>
      </trkpt>
      <trkpt lat="44.00912" lon="5.9161">
        <ele>547.3</ele>
        <time>2024-11-27T14:51:18+01:00</time>
      </trkpt>
      <trkpt lat="44.00918" lon="5.9162">
        <ele>546.1</ele>
        <time>2024-11-27T14:51:27+01:00</time>
      </trkpt>
      <trkpt lat="44.00925" lon="5.91631">
        <ele>544.3</ele>
        <time>2024-11-27T14:51:36+01:00</time>
      </trkpt>
      <trkpt lat="44.00931" lon="5.91642">
        <ele>543.3</ele>
        <time>2024-11-27T14:51:45+01:00</time>
      </trkpt>
      <trkpt lat="44.00937" lon="5.91654">
        <ele>543.3</ele>
        <time>2024-11-27T14:51:57+01:00</time>
      </trkpt>
      <trkpt lat="44.00939" lon="5.91663">
        <ele>543</ele>
        <time>2024-11-27T14:52:09+01:00</time>
      </trkpt>
      <trkpt lat="44.00944" lon="5.91655">
        <ele>544.3</ele>
        <time>2024-11-27T15:07:27+01:00</time>
      </trkpt>
      <trkpt lat="44.00952" lon="5.9165">
        <ele>542.9</ele>
        <time>2024-11-27T15:07:42+01:00</time>
      </trkpt>
      <trkpt lat="44.0096" lon="5.91645">
        <ele>541</ele>
        <time>2024-11-27T15:08:03+01:00</time>
      </trkpt>
      <trkpt lat="44.00967" lon="5.91636">
        <ele>539.8</ele>
        <time>2024-11-27T15:08:15+01:00</time>
      </trkpt>
      <trkpt lat="44.00974" lon="5.91629">
        <ele>539.4</ele>
        <time>2024-11-27T15:08:27+01:00</time>
      </trkpt>
      <trkpt lat="44.00982" lon="5.91624">
        <ele>538.8</ele>
        <time>2024-11-27T15:08:36+01:00</time>
      </trkpt>
      <trkpt lat="44.00991" lon="5.9162">
        <ele>537.9</ele>
        <time>2024-11-27T15:08:45+01:00</time>
      </trkpt>
      <trkpt lat="44.01001" lon="5.91621">
        <ele>535.6</ele>
        <time>2024-11-27T15:09:03+01:00</time>
      </trkpt>
      <trkpt lat="44.01008" lon="5.9163">
        <ele>532.1</ele>
        <time>2024-11-27T15:09:21+01:00</time>
      </trkpt>
      <trkpt lat="44.01007" lon="5.91644">
        <ele>530.4</ele>
        <time>2024-11-27T15:09:39+01:00</time>
      </trkpt>
      <trkpt lat="44.01008" lon="5.91654">
        <ele>530.8</ele>
        <time>2024-11-27T15:09:51+01:00</time>
      </trkpt>
      <trkpt lat="44.01016" lon="5.91655">
        <ele>529.2</ele>
        <time>2024-11-27T15:10:06+01:00</time>
      </trkpt>
      <trkpt lat="44.01026" lon="5.91657">
        <ele>527.4</ele>
        <time>2024-11-27T15:10:20+01:00</time>
      </trkpt>
      <trkpt lat="44.01035" lon="5.91658">
        <ele>525.8</ele>
        <time>2024-11-27T15:10:34+01:00</time>
      </trkpt>
      <trkpt lat="44.01044" lon="5.91658">
        <ele>524.1</ele>
        <time>2024-11-27T15:10:43+01:00</time>
      </trkpt>
      <trkpt lat="44.01054" lon="5.91658">
        <ele>522.3</ele>
        <time>2024-11-27T15:10:55+01:00</time>
      </trkpt>
      <trkpt lat="44.01065" lon="5.91657">
        <ele>520.3</ele>
        <time>2024-11-27T15:11:07+01:00</time>
      </trkpt>
      <trkpt lat="44.01075" lon="5.91655">
        <ele>518.1</ele>
        <time>2024-11-27T15:11:16+01:00</time>
      </trkpt>
      <trkpt lat="44.01085" lon="5.91655">
        <ele>516.4</ele>
        <time>2024-11-27T15:11:28+01:00</time>
      </trkpt>
      <trkpt lat="44.01094" lon="5.91658">
        <ele>514.5</ele>
        <time>2024-11-27T15:11:40+01:00</time>
      </trkpt>
      <trkpt lat="44.01103" lon="5.91661">
        <ele>512.9</ele>
        <time>2024-11-27T15:11:52+01:00</time>
      </trkpt>
      <trkpt lat="44.01114" lon="5.91665">
        <ele>511.3</ele>
        <time>2024-11-27T15:12:04+01:00</time>
      </trkpt>
      <trkpt lat="44.01123" lon="5.91665">
        <ele>509.8</ele>
        <time>2024-11-27T15:12:13+01:00</time>
      </trkpt>
      <trkpt lat="44.01133" lon="5.91663">
        <ele>507.9</ele>
        <time>2024-11-27T15:12:25+01:00</time>
      </trkpt>
      <trkpt lat="44.01143" lon="5.91665">
        <ele>505.8</ele>
        <time>2024-11-27T15:12:37+01:00</time>
      </trkpt>
      <trkpt lat="44.01152" lon="5.9167">
        <ele>503.3</ele>
        <time>2024-11-27T15:12:51+01:00</time>
      </trkpt>
      <trkpt lat="44.0116" lon="5.91677">
        <ele>501.2</ele>
        <time>2024-11-27T15:13:04+01:00</time>
      </trkpt>
      <trkpt lat="44.01165" lon="5.91687">
        <ele>500.7</ele>
        <time>2024-11-27T15:13:13+01:00</time>
      </trkpt>
      <trkpt lat="44.01171" lon="5.91696">
        <ele>500.4</ele>
        <time>2024-11-27T15:13:28+01:00</time>
      </trkpt>
      <trkpt lat="44.0118" lon="5.91698">
        <ele>499</ele>
        <time>2024-11-27T15:13:40+01:00</time>
      </trkpt>
      <trkpt lat="44.0119" lon="5.91699">
        <ele>497.2</ele>
        <time>2024-11-27T15:13:52+01:00</time>
      </trkpt>
      <trkpt lat="44.012" lon="5.91696">
        <ele>494.5</ele>
        <time>2024-11-27T15:14:03+01:00</time>
      </trkpt>
      <trkpt lat="44.01209" lon="5.91695">
        <ele>492.9</ele>
        <time>2024-11-27T15:14:16+01:00</time>
      </trkpt>
      <trkpt lat="44.01219" lon="5.91695">
        <ele>491.6</ele>
        <time>2024-11-27T15:14:31+01:00</time>
      </trkpt>
      <trkpt lat="44.01229" lon="5.91701">
        <ele>490.4</ele>
        <time>2024-11-27T15:14:52+01:00</time>
      </trkpt>
      <trkpt lat="44.01237" lon="5.91707">
        <ele>489</ele>
        <time>2024-11-27T15:15:10+01:00</time>
      </trkpt>
      <trkpt lat="44.01248" lon="5.91711">
        <ele>486.1</ele>
        <time>2024-11-27T15:15:22+01:00</time>
      </trkpt>
      <trkpt lat="44.01258" lon="5.91714">
        <ele>483.9</ele>
        <time>2024-11-27T15:15:34+01:00</time>
      </trkpt>
      <trkpt lat="44.01267" lon="5.91719">
        <ele>482.2</ele>
        <time>2024-11-27T15:15:49+01:00</time>
      </trkpt>
      <trkpt lat="44.01274" lon="5.9173">
        <ele>480.7</ele>
        <time>2024-11-27T15:16:01+01:00</time>
      </trkpt>
      <trkpt lat="44.01277" lon="5.91742">
        <ele>478.8</ele>
        <time>2024-11-27T15:16:10+01:00</time>
      </trkpt>
      <trkpt lat="44.0128" lon="5.91755">
        <ele>476.7</ele>
        <time>2024-11-27T15:16:21+01:00</time>
      </trkpt>
      <trkpt lat="44.0128" lon="5.9177">
        <ele>474.9</ele>
        <time>2024-11-27T15:16:37+01:00</time>
      </trkpt>
      <trkpt lat="44.01279" lon="5.91783">
        <ele>473.9</ele>
        <time>2024-11-27T15:16:46+01:00</time>
      </trkpt>
      <trkpt lat="44.01277" lon="5.91795">
        <ele>473.8</ele>
        <time>2024-11-27T15:16:55+01:00</time>
      </trkpt>
      <trkpt lat="44.01275" lon="5.91808">
        <ele>473.6</ele>
        <time>2024-11-27T15:17:07+01:00</time>
      </trkpt>
      <trkpt lat="44.01279" lon="5.9182">
        <ele>473</ele>
        <time>2024-11-27T15:17:19+01:00</time>
      </trkpt>
      <trkpt lat="44.01287" lon="5.91827">
        <ele>474</ele>
        <time>2024-11-27T15:17:31+01:00</time>
      </trkpt>
      <trkpt lat="44.01296" lon="5.9183">
        <ele>475.1</ele>
        <time>2024-11-27T15:17:43+01:00</time>
      </trkpt>
      <trkpt lat="44.01306" lon="5.91834">
        <ele>477.1</ele>
        <time>2024-11-27T15:17:52+01:00</time>
      </trkpt>
      <trkpt lat="44.01316" lon="5.91836">
        <ele>477.6</ele>
        <time>2024-11-27T15:18:04+01:00</time>
      </trkpt>
      <trkpt lat="44.01325" lon="5.9184">
        <ele>478.3</ele>
        <time>2024-11-27T15:18:13+01:00</time>
      </trkpt>
      <trkpt lat="44.01334" lon="5.91846">
        <ele>479</ele>
        <time>2024-11-27T15:18:22+01:00</time>
      </trkpt>
      <trkpt lat="44.01342" lon="5.91855">
        <ele>478.8</ele>
        <time>2024-11-27T15:18:34+01:00</time>
      </trkpt>
      <trkpt lat="44.01349" lon="5.91865">
        <ele>478.6</ele>
        <time>2024-11-27T15:18:42+01:00</time>
      </trkpt>
      <trkpt lat="44.01356" lon="5.91875">
        <ele>478.6</ele>
        <time>2024-11-27T15:18:52+01:00</time>
      </trkpt>
      <trkpt lat="44.01363" lon="5.91885">
        <ele>478.5</ele>
        <time>2024-11-27T15:19:01+01:00</time>
      </trkpt>
      <trkpt lat="44.01371" lon="5.91892">
        <ele>478.2</ele>
        <time>2024-11-27T15:19:06+01:00</time>
      </trkpt>
      <trkpt lat="44.01376" lon="5.91904">
        <ele>478.5</ele>
        <time>2024-11-27T15:19:19+01:00</time>
      </trkpt>
      <trkpt lat="44.01374" lon="5.91916">
        <ele>480.6</ele>
        <time>2024-11-27T15:19:28+01:00</time>
      </trkpt>
      <trkpt lat="44.01369" lon="5.91925">
        <ele>480.8</ele>
        <time>2024-11-27T15:19:37+01:00</time>
      </trkpt>
      <trkpt lat="44.01364" lon="5.91937">
        <ele>480.3</ele>
        <time>2024-11-27T15:19:49+01:00</time>
      </trkpt>
      <trkpt lat="44.01359" lon="5.91951">
        <ele>478.9</ele>
        <time>2024-11-27T15:20:01+01:00</time>
      </trkpt>
      <trkpt lat="44.01355" lon="5.91962">
        <ele>477.5</ele>
        <time>2024-11-27T15:20:10+01:00</time>
      </trkpt>
      <trkpt lat="44.0135" lon="5.91975">
        <ele>476.8</ele>
        <time>2024-11-27T15:20:22+01:00</time>
      </trkpt>
      <trkpt lat="44.01351" lon="5.91987">
        <ele>475.4</ele>
        <time>2024-11-27T15:20:31+01:00</time>
      </trkpt>
      <trkpt lat="44.01356" lon="5.91998">
        <ele>472.3</ele>
        <time>2024-11-27T15:20:43+01:00</time>
      </trkpt>
      <trkpt lat="44.01365" lon="5.92001">
        <ele>469.6</ele>
        <time>2024-11-27T15:20:52+01:00</time>
      </trkpt>
      <trkpt lat="44.01374" lon="5.92003">
        <ele>468.9</ele>
        <time>2024-11-27T15:21:04+01:00</time>
      </trkpt>
      <trkpt lat="44.01383" lon="5.92008">
        <ele>469.3</ele>
        <time>2024-11-27T15:21:13+01:00</time>
      </trkpt>
      <trkpt lat="44.01391" lon="5.92016">
        <ele>470.9</ele>
        <time>2024-11-27T15:21:22+01:00</time>
      </trkpt>
      <trkpt lat="44.014" lon="5.92022">
        <ele>471.1</ele>
        <time>2024-11-27T15:21:31+01:00</time>
      </trkpt>
      <trkpt lat="44.01409" lon="5.92031">
        <ele>471.2</ele>
        <time>2024-11-27T15:21:40+01:00</time>
      </trkpt>
      <trkpt lat="44.0141" lon="5.92045">
        <ele>471.7</ele>
        <time>2024-11-27T15:21:52+01:00</time>
      </trkpt>
      <trkpt lat="44.01409" lon="5.92059">
        <ele>472.6</ele>
        <time>2024-11-27T15:22:01+01:00</time>
      </trkpt>
      <trkpt lat="44.01409" lon="5.92072">
        <ele>472.9</ele>
        <time>2024-11-27T15:22:10+01:00</time>
      </trkpt>
      <trkpt lat="44.01412" lon="5.92085">
        <ele>472.2</ele>
        <time>2024-11-27T15:22:19+01:00</time>
      </trkpt>
      <trkpt lat="44.01412" lon="5.92098">
        <ele>471.9</ele>
        <time>2024-11-27T15:22:31+01:00</time>
      </trkpt>
      <trkpt lat="44.01411" lon="5.9211">
        <ele>472</ele>
        <time>2024-11-27T15:22:43+01:00</time>
      </trkpt>
      <trkpt lat="44.0141" lon="5.92125">
        <ele>469.2</ele>
        <time>2024-11-27T15:22:57+01:00</time>
      </trkpt>
      <trkpt lat="44.01411" lon="5.92142">
        <ele>465.3</ele>
        <time>2024-11-27T15:23:09+01:00</time>
      </trkpt>
      <trkpt lat="44.01416" lon="5.92156">
        <ele>463.5</ele>
        <time>2024-11-27T15:23:15+01:00</time>
      </trkpt>
      <trkpt lat="44.0142" lon="5.92169">
        <ele>461.9</ele>
        <time>2024-11-27T15:23:24+01:00</time>
      </trkpt>
      <trkpt lat="44.01426" lon="5.9218">
        <ele>460.9</ele>
        <time>2024-11-27T15:23:33+01:00</time>
      </trkpt>
      <trkpt lat="44.01433" lon="5.9219">
        <ele>460.7</ele>
        <time>2024-11-27T15:23:42+01:00</time>
      </trkpt>
      <trkpt lat="44.01442" lon="5.92198">
        <ele>459.5</ele>
        <time>2024-11-27T15:23:55+01:00</time>
      </trkpt>
      <trkpt lat="44.01452" lon="5.92202">
        <ele>457.7</ele>
        <time>2024-11-27T15:24:06+01:00</time>
      </trkpt>
      <trkpt lat="44.01461" lon="5.92208">
        <ele>456</ele>
        <time>2024-11-27T15:24:15+01:00</time>
      </trkpt>
      <trkpt lat="44.01469" lon="5.92218">
        <ele>454.5</ele>
        <time>2024-11-27T15:24:27+01:00</time>
      </trkpt>
      <trkpt lat="44.01476" lon="5.92228">
        <ele>451.9</ele>
        <time>2024-11-27T15:24:42+01:00</time>
      </trkpt>
      <trkpt lat="44.01484" lon="5.92233">
        <ele>448.6</ele>
        <time>2024-11-27T15:24:51+01:00</time>
      </trkpt>
      <trkpt lat="44.01493" lon="5.92234">
        <ele>446</ele>
        <time>2024-11-27T15:25:04+01:00</time>
      </trkpt>
      <trkpt lat="44.01496" lon="5.92246">
        <ele>444.8</ele>
        <time>2024-11-27T15:25:18+01:00</time>
      </trkpt>
      <trkpt lat="44.01496" lon="5.9226">
        <ele>442.4</ele>
        <time>2024-11-27T15:25:36+01:00</time>
      </trkpt>
      <trkpt lat="44.01496" lon="5.92273">
        <ele>439.5</ele>
        <time>2024-11-27T15:25:52+01:00</time>
      </trkpt>
      <trkpt lat="44.01492" lon="5.92285">
        <ele>436.5</ele>
        <time>2024-11-27T15:26:06+01:00</time>
      </trkpt>
      <trkpt lat="44.01485" lon="5.92295">
        <ele>434</ele>
        <time>2024-11-27T15:26:21+01:00</time>
      </trkpt>
      <trkpt lat="44.01479" lon="5.92304">
        <ele>431.5</ele>
        <time>2024-11-27T15:26:36+01:00</time>
      </trkpt>
      <trkpt lat="44.01482" lon="5.92315">
        <ele>428.6</ele>
        <time>2024-11-27T15:26:51+01:00</time>
      </trkpt>
      <trkpt lat="44.01486" lon="5.92327">
        <ele>425.7</ele>
        <time>2024-11-27T15:27:03+01:00</time>
      </trkpt>
      <trkpt lat="44.01493" lon="5.92337">
        <ele>423.3</ele>
        <time>2024-11-27T15:27:15+01:00</time>
      </trkpt>
      <trkpt lat="44.01497" lon="5.92347">
        <ele>420.9</ele>
        <time>2024-11-27T15:27:25+01:00</time>
      </trkpt>
      <trkpt lat="44.01489" lon="5.9235">
        <ele>419.5</ele>
        <time>2024-11-27T15:31:46+01:00</time>
      </trkpt>
      <trkpt lat="44.01478" lon="5.92349">
        <ele>419.2</ele>
        <time>2024-11-27T15:31:56+01:00</time>
      </trkpt>
      <trkpt lat="44.01469" lon="5.92343">
        <ele>420.3</ele>
        <time>2024-11-27T15:32:05+01:00</time>
      </trkpt>
      <trkpt lat="44.01459" lon="5.92335">
        <ele>420.3</ele>
        <time>2024-11-27T15:32:14+01:00</time>
      </trkpt>
      <trkpt lat="44.0145" lon="5.92329">
        <ele>419.2</ele>
        <time>2024-11-27T15:32:23+01:00</time>
      </trkpt>
      <trkpt lat="44.01439" lon="5.92325">
        <ele>418.7</ele>
        <time>2024-11-27T15:32:32+01:00</time>
      </trkpt>
      <trkpt lat="44.01429" lon="5.92323">
        <ele>418.2</ele>
        <time>2024-11-27T15:32:41+01:00</time>
      </trkpt>
      <trkpt lat="44.01419" lon="5.92321">
        <ele>417.3</ele>
        <time>2024-11-27T15:32:50+01:00</time>
      </trkpt>
      <trkpt lat="44.01413" lon="5.92326">
        <ele>416</ele>
        <time>2024-11-27T15:32:59+01:00</time>
      </trkpt>
      <trkpt lat="44.01419" lon="5.92332">
        <ele>414.6</ele>
        <time>2024-11-27T15:33:14+01:00</time>
      </trkpt>
      <trkpt lat="44.01429" lon="5.92336">
        <ele>414.1</ele>
        <time>2024-11-27T15:33:26+01:00</time>
      </trkpt>
      <trkpt lat="44.01439" lon="5.9234">
        <ele>413.8</ele>
        <time>2024-11-27T15:33:35+01:00</time>
      </trkpt>
      <trkpt lat="44.01445" lon="5.92349">
        <ele>412.3</ele>
        <time>2024-11-27T15:33:44+01:00</time>
      </trkpt>
      <trkpt lat="44.01452" lon="5.92357">
        <ele>411.5</ele>
        <time>2024-11-27T15:33:53+01:00</time>
      </trkpt>
      <trkpt lat="44.01461" lon="5.92365">
        <ele>411</ele>
        <time>2024-11-27T15:34:05+01:00</time>
      </trkpt>
      <trkpt lat="44.0147" lon="5.92371">
        <ele>410.8</ele>
        <time>2024-11-27T15:34:13+01:00</time>
      </trkpt>
      <trkpt lat="44.01478" lon="5.92378">
        <ele>410.3</ele>
        <time>2024-11-27T15:34:23+01:00</time>
      </trkpt>
      <trkpt lat="44.01486" lon="5.92386">
        <ele>409.4</ele>
        <time>2024-11-27T15:34:32+01:00</time>
      </trkpt>
      <trkpt lat="44.01493" lon="5.92393">
        <ele>408.8</ele>
        <time>2024-11-27T15:34:41+01:00</time>
      </trkpt>
      <trkpt lat="44.01502" lon="5.92396">
        <ele>408.2</ele>
        <time>2024-11-27T15:34:53+01:00</time>
      </trkpt>
      <trkpt lat="44.01511" lon="5.92392">
        <ele>405.6</ele>
        <time>2024-11-27T15:35:08+01:00</time>
      </trkpt>
      <trkpt lat="44.0152" lon="5.92386">
        <ele>402.3</ele>
        <time>2024-11-27T15:35:23+01:00</time>
      </trkpt>
      <trkpt lat="44.0153" lon="5.92387">
        <ele>398.8</ele>
        <time>2024-11-27T15:35:35+01:00</time>
      </trkpt>
      <trkpt lat="44.01539" lon="5.92391">
        <ele>401.4</ele>
        <time>2024-11-27T15:35:50+01:00</time>
      </trkpt>
      <trkpt lat="44.01548" lon="5.92396">
        <ele>403.6</ele>
        <time>2024-11-27T15:35:59+01:00</time>
      </trkpt>
      <trkpt lat="44.01556" lon="5.92403">
        <ele>405.1</ele>
        <time>2024-11-27T15:36:08+01:00</time>
      </trkpt>
      <trkpt lat="44.01565" lon="5.92406">
        <ele>406.4</ele>
        <time>2024-11-27T15:36:17+01:00</time>
      </trkpt>
      <trkpt lat="44.01574" lon="5.92409">
        <ele>407.9</ele>
        <time>2024-11-27T15:36:25+01:00</time>
      </trkpt>
      <trkpt lat="44.0158" lon="5.92419">
        <ele>409</ele>
        <time>2024-11-27T15:36:37+01:00</time>
      </trkpt>
      <trkpt lat="44.01582" lon="5.92432">
        <ele>409.6</ele>
        <time>2024-11-27T15:36:46+01:00</time>
      </trkpt>
      <trkpt lat="44.01583" lon="5.92447">
        <ele>409.7</ele>
        <time>2024-11-27T15:36:55+01:00</time>
      </trkpt>
      <trkpt lat="44.01585" lon="5.92463">
        <ele>408.8</ele>
        <time>2024-11-27T15:37:05+01:00</time>
      </trkpt>
      <trkpt lat="44.0159" lon="5.92477">
        <ele>408.4</ele>
        <time>2024-11-27T15:37:14+01:00</time>
      </trkpt>
      <trkpt lat="44.01597" lon="5.92488">
        <ele>408.3</ele>
        <time>2024-11-27T15:37:23+01:00</time>
      </trkpt>
      <trkpt lat="44.01605" lon="5.92494">
        <ele>409</ele>
        <time>2024-11-27T15:37:32+01:00</time>
      </trkpt>
      <trkpt lat="44.01612" lon="5.92502">
        <ele>408.8</ele>
        <time>2024-11-27T15:37:41+01:00</time>
      </trkpt>
      <trkpt lat="44.0162" lon="5.92513">
        <ele>409.8</ele>
        <time>2024-11-27T15:37:52+01:00</time>
      </trkpt>
      <trkpt lat="44.01626" lon="5.92525">
        <ele>409</ele>
        <time>2024-11-27T15:38:01+01:00</time>
      </trkpt>
      <trkpt lat="44.01632" lon="5.92535">
        <ele>408.4</ele>
        <time>2024-11-27T15:38:11+01:00</time>
      </trkpt>
      <trkpt lat="44.01638" lon="5.92545">
        <ele>407.7</ele>
        <time>2024-11-27T15:38:19+01:00</time>
      </trkpt>
      <trkpt lat="44.01645" lon="5.92553">
        <ele>408.8</ele>
        <time>2024-11-27T15:38:29+01:00</time>
      </trkpt>
      <trkpt lat="44.01652" lon="5.92564">
        <ele>409</ele>
        <time>2024-11-27T15:38:38+01:00</time>
      </trkpt>
      <trkpt lat="44.01658" lon="5.92576">
        <ele>408.2</ele>
        <time>2024-11-27T15:38:50+01:00</time>
      </trkpt>
      <trkpt lat="44.01665" lon="5.92586">
        <ele>407.5</ele>
        <time>2024-11-27T15:38:59+01:00</time>
      </trkpt>
      <trkpt lat="44.01674" lon="5.92594">
        <ele>407.6</ele>
        <time>2024-11-27T15:39:08+01:00</time>
      </trkpt>
      <trkpt lat="44.01683" lon="5.92602">
        <ele>408</ele>
        <time>2024-11-27T15:39:17+01:00</time>
      </trkpt>
      <trkpt lat="44.01692" lon="5.9261">
        <ele>408.4</ele>
        <time>2024-11-27T15:39:26+01:00</time>
      </trkpt>
      <trkpt lat="44.017" lon="5.92619">
        <ele>408.4</ele>
        <time>2024-11-27T15:39:41+01:00</time>
      </trkpt>
      <trkpt lat="44.01708" lon="5.92625">
        <ele>408.9</ele>
        <time>2024-11-27T15:39:53+01:00</time>
      </trkpt>
      <trkpt lat="44.01715" lon="5.92633">
        <ele>409.2</ele>
        <time>2024-11-27T15:40:02+01:00</time>
      </trkpt>
      <trkpt lat="44.01723" lon="5.92641">
        <ele>409.7</ele>
        <time>2024-11-27T15:40:11+01:00</time>
      </trkpt>
      <trkpt lat="44.01731" lon="5.92647">
        <ele>411.4</ele>
        <time>2024-11-27T15:40:20+01:00</time>
      </trkpt>
      <trkpt lat="44.01739" lon="5.92658">
        <ele>411.1</ele>
        <time>2024-11-27T15:40:32+01:00</time>
      </trkpt>
      <trkpt lat="44.01745" lon="5.92667">
        <ele>410.2</ele>
        <time>2024-11-27T15:40:41+01:00</time>
      </trkpt>
      <trkpt lat="44.01752" lon="5.92678">
        <ele>409.2</ele>
        <time>2024-11-27T15:40:50+01:00</time>
      </trkpt>
      <trkpt lat="44.0176" lon="5.92689">
        <ele>409.5</ele>
        <time>2024-11-27T15:41:02+01:00</time>
      </trkpt>
      <trkpt lat="44.01766" lon="5.92701">
        <ele>409.6</ele>
        <time>2024-11-27T15:41:11+01:00</time>
      </trkpt>
      <trkpt lat="44.01771" lon="5.92714">
        <ele>409.2</ele>
        <time>2024-11-27T15:41:20+01:00</time>
      </trkpt>
      <trkpt lat="44.01776" lon="5.92725">
        <ele>409.3</ele>
        <time>2024-11-27T15:41:29+01:00</time>
      </trkpt>
      <trkpt lat="44.01782" lon="5.92736">
        <ele>408.9</ele>
        <time>2024-11-27T15:41:37+01:00</time>
      </trkpt>
      <trkpt lat="44.0179" lon="5.92748">
        <ele>408.3</ele>
        <time>2024-11-27T15:41:56+01:00</time>
      </trkpt>
      <trkpt lat="44.01797" lon="5.92758">
        <ele>408.1</ele>
        <time>2024-11-27T15:42:05+01:00</time>
      </trkpt>
      <trkpt lat="44.01804" lon="5.92767">
        <ele>408.6</ele>
        <time>2024-11-27T15:42:14+01:00</time>
      </trkpt>
      <trkpt lat="44.01812" lon="5.92774">
        <ele>408.5</ele>
        <time>2024-11-27T15:42:22+01:00</time>
      </trkpt>
      <trkpt lat="44.01821" lon="5.92779">
        <ele>408.2</ele>
        <time>2024-11-27T15:42:34+01:00</time>
      </trkpt>
      <trkpt lat="44.01831" lon="5.92783">
        <ele>407.6</ele>
        <time>2024-11-27T15:42:44+01:00</time>
      </trkpt>
      <trkpt lat="44.01842" lon="5.92787">
        <ele>407.7</ele>
        <time>2024-11-27T15:42:53+01:00</time>
      </trkpt>
      <trkpt lat="44.01852" lon="5.92794">
        <ele>406.9</ele>
        <time>2024-11-27T15:43:05+01:00</time>
      </trkpt>
      <trkpt lat="44.01861" lon="5.928">
        <ele>406.7</ele>
        <time>2024-11-27T15:43:14+01:00</time>
      </trkpt>
      <trkpt lat="44.0187" lon="5.92806">
        <ele>406.9</ele>
        <time>2024-11-27T15:43:22+01:00</time>
      </trkpt>
      <trkpt lat="44.01879" lon="5.92811">
        <ele>406.8</ele>
        <time>2024-11-27T15:43:32+01:00</time>
      </trkpt>
      <trkpt lat="44.01889" lon="5.92816">
        <ele>407</ele>
        <time>2024-11-27T15:43:44+01:00</time>
      </trkpt>
      <trkpt lat="44.01898" lon="5.92824">
        <ele>407</ele>
        <time>2024-11-27T15:43:56+01:00</time>
      </trkpt>
      <trkpt lat="44.01907" lon="5.92832">
        <ele>406.8</ele>
        <time>2024-11-27T15:44:05+01:00</time>
      </trkpt>
      <trkpt lat="44.01916" lon="5.92841">
        <ele>406.6</ele>
        <time>2024-11-27T15:44:14+01:00</time>
      </trkpt>
      <trkpt lat="44.01924" lon="5.92848">
        <ele>407.4</ele>
        <time>2024-11-27T15:44:23+01:00</time>
      </trkpt>
      <trkpt lat="44.01933" lon="5.92854">
        <ele>408</ele>
        <time>2024-11-27T15:44:32+01:00</time>
      </trkpt>
      <trkpt lat="44.01942" lon="5.92863">
        <ele>408.1</ele>
        <time>2024-11-27T15:44:44+01:00</time>
      </trkpt>
      <trkpt lat="44.01949" lon="5.92871">
        <ele>407.8</ele>
        <time>2024-11-27T15:44:53+01:00</time>
      </trkpt>
      <trkpt lat="44.01957" lon="5.92878">
        <ele>407.7</ele>
        <time>2024-11-27T15:45:02+01:00</time>
      </trkpt>
      <trkpt lat="44.01964" lon="5.92884">
        <ele>408.1</ele>
        <time>2024-11-27T15:45:11+01:00</time>
      </trkpt>
      <trkpt lat="44.01973" lon="5.92884">
        <ele>411</ele>
        <time>2024-11-27T15:45:23+01:00</time>
      </trkpt>
      <trkpt lat="44.01982" lon="5.92883">
        <ele>411</ele>
        <time>2024-11-27T15:45:32+01:00</time>
      </trkpt>
      <trkpt lat="44.0199" lon="5.92882">
        <ele>411.3</ele>
        <time>2024-11-27T15:45:41+01:00</time>
      </trkpt>
      <trkpt lat="44.01998" lon="5.92887">
        <ele>409.4</ele>
        <time>2024-11-27T15:45:53+01:00</time>
      </trkpt>
      <trkpt lat="44.02005" lon="5.92895">
        <ele>409.3</ele>
        <time>2024-11-27T15:46:02+01:00</time>
      </trkpt>
      <trkpt lat="44.02012" lon="5.92903">
        <ele>408.7</ele>
        <time>2024-11-27T15:46:11+01:00</time>
      </trkpt>
      <trkpt lat="44.02019" lon="5.92912">
        <ele>408</ele>
        <time>2024-11-27T15:46:20+01:00</time>
      </trkpt>
      <trkpt lat="44.02029" lon="5.92918">
        <ele>407.9</ele>
        <time>2024-11-27T15:46:29+01:00</time>
      </trkpt>
      <trkpt lat="44.02038" lon="5.92924">
        <ele>407.1</ele>
        <time>2024-11-27T15:46:38+01:00</time>
      </trkpt>
      <trkpt lat="44.02047" lon="5.92931">
        <ele>406</ele>
        <time>2024-11-27T15:46:47+01:00</time>
      </trkpt>
      <trkpt lat="44.02057" lon="5.92939">
        <ele>404.7</ele>
        <time>2024-11-27T15:46:59+01:00</time>
      </trkpt>
      <trkpt lat="44.02066" lon="5.92946">
        <ele>404.4</ele>
        <time>2024-11-27T15:47:08+01:00</time>
      </trkpt>
      <trkpt lat="44.02075" lon="5.92951">
        <ele>405.3</ele>
        <time>2024-11-27T15:47:17+01:00</time>
      </trkpt>
      <trkpt lat="44.02085" lon="5.92956">
        <ele>406</ele>
        <time>2024-11-27T15:47:26+01:00</time>
      </trkpt>
      <trkpt lat="44.02095" lon="5.92958">
        <ele>405.8</ele>
        <time>2024-11-27T15:47:35+01:00</time>
      </trkpt>
      <trkpt lat="44.02105" lon="5.92962">
        <ele>405.5</ele>
        <time>2024-11-27T15:47:47+01:00</time>
      </trkpt>
      <trkpt lat="44.02116" lon="5.92966">
        <ele>405.6</ele>
        <time>2024-11-27T15:47:56+01:00</time>
      </trkpt>
      <trkpt lat="44.02128" lon="5.9297">
        <ele>405.9</ele>
        <time>2024-11-27T15:48:05+01:00</time>
      </trkpt>
      <trkpt lat="44.02139" lon="5.92975">
        <ele>405.6</ele>
        <time>2024-11-27T15:48:14+01:00</time>
      </trkpt>
      <trkpt lat="44.02149" lon="5.92981">
        <ele>405.9</ele>
        <time>2024-11-27T15:48:23+01:00</time>
      </trkpt>
      <trkpt lat="44.02159" lon="5.92987">
        <ele>406</ele>
        <time>2024-11-27T15:48:32+01:00</time>
      </trkpt>
      <trkpt lat="44.02171" lon="5.92992">
        <ele>406.8</ele>
        <time>2024-11-27T15:48:41+01:00</time>
      </trkpt>
      <trkpt lat="44.02182" lon="5.92999">
        <ele>407.5</ele>
        <time>2024-11-27T15:48:50+01:00</time>
      </trkpt>
      <trkpt lat="44.02192" lon="5.93006">
        <ele>408.3</ele>
        <time>2024-11-27T15:48:59+01:00</time>
      </trkpt>
      <trkpt lat="44.02203" lon="5.9301">
        <ele>409.2</ele>
        <time>2024-11-27T15:49:08+01:00</time>
      </trkpt>
      <trkpt lat="44.02212" lon="5.93015">
        <ele>409.7</ele>
        <time>2024-11-27T15:49:17+01:00</time>
      </trkpt>
      <trkpt lat="44.02223" lon="5.93021">
        <ele>410.2</ele>
        <time>2024-11-27T15:49:26+01:00</time>
      </trkpt>
      <trkpt lat="44.02234" lon="5.93027">
        <ele>409.6</ele>
        <time>2024-11-27T15:49:35+01:00</time>
      </trkpt>
      <trkpt lat="44.02244" lon="5.93033">
        <ele>408.8</ele>
        <time>2024-11-27T15:49:43+01:00</time>
      </trkpt>
      <trkpt lat="44.02253" lon="5.93038">
        <ele>408.4</ele>
        <time>2024-11-27T15:49:53+01:00</time>
      </trkpt>
      <trkpt lat="44.02261" lon="5.93043">
        <ele>408.6</ele>
        <time>2024-11-27T15:50:02+01:00</time>
      </trkpt>
      <trkpt lat="44.02269" lon="5.9305">
        <ele>408.4</ele>
        <time>2024-11-27T15:50:11+01:00</time>
      </trkpt>
      <trkpt lat="44.02277" lon="5.93057">
        <ele>408.7</ele>
        <time>2024-11-27T15:50:20+01:00</time>
      </trkpt>
      <trkpt lat="44.02288" lon="5.93062">
        <ele>408.7</ele>
        <time>2024-11-27T15:50:29+01:00</time>
      </trkpt>
      <trkpt lat="44.02298" lon="5.93066">
        <ele>408.9</ele>
        <time>2024-11-27T15:50:38+01:00</time>
      </trkpt>
      <trkpt lat="44.02307" lon="5.93071">
        <ele>408.9</ele>
        <time>2024-11-27T15:50:47+01:00</time>
      </trkpt>
      <trkpt lat="44.02317" lon="5.93076">
        <ele>409.1</ele>
        <time>2024-11-27T15:50:56+01:00</time>
      </trkpt>
      <trkpt lat="44.02326" lon="5.93082">
        <ele>408.8</ele>
        <time>2024-11-27T15:51:08+01:00</time>
      </trkpt>
      <trkpt lat="44.02327" lon="5.93096">
        <ele>408.1</ele>
        <time>2024-11-27T15:51:26+01:00</time>
      </trkpt>
      <trkpt lat="44.02332" lon="5.93107">
        <ele>408.1</ele>
        <time>2024-11-27T15:51:35+01:00</time>
      </trkpt>
      <trkpt lat="44.02337" lon="5.93118">
        <ele>407.9</ele>
        <time>2024-11-27T15:51:44+01:00</time>
      </trkpt>
      <trkpt lat="44.02341" lon="5.93129">
        <ele>407.8</ele>
        <time>2024-11-27T15:51:53+01:00</time>
      </trkpt>
      <trkpt lat="44.02345" lon="5.93141">
        <ele>407.9</ele>
        <time>2024-11-27T15:52:02+01:00</time>
      </trkpt>
      <trkpt lat="44.02349" lon="5.93152">
        <ele>408.1</ele>
        <time>2024-11-27T15:52:26+01:00</time>
      </trkpt>
      <trkpt lat="44.02346" lon="5.93164">
        <ele>407.9</ele>
        <time>2024-11-27T15:52:38+01:00</time>
      </trkpt>
      <trkpt lat="44.02339" lon="5.93173">
        <ele>407.6</ele>
        <time>2024-11-27T15:52:56+01:00</time>
      </trkpt>
      <trkpt lat="44.02331" lon="5.9318">
        <ele>407.4</ele>
        <time>2024-11-27T15:53:08+01:00</time>
      </trkpt>
      <trkpt lat="44.02323" lon="5.93186">
        <ele>407.2</ele>
        <time>2024-11-27T15:53:16+01:00</time>
      </trkpt>
      <trkpt lat="44.02314" lon="5.93194">
        <ele>406.6</ele>
        <time>2024-11-27T15:53:29+01:00</time>
      </trkpt>
      <trkpt lat="44.02306" lon="5.93202">
        <ele>406.3</ele>
        <time>2024-11-27T15:53:38+01:00</time>
      </trkpt>
      <trkpt lat="44.02298" lon="5.93208">
        <ele>406.4</ele>
        <time>2024-11-27T15:53:47+01:00</time>
      </trkpt>
      <trkpt lat="44.02291" lon="5.93216">
        <ele>406.4</ele>
        <time>2024-11-27T15:53:56+01:00</time>
      </trkpt>
      <trkpt lat="44.02289" lon="5.93229">
        <ele>406.1</ele>
        <time>2024-11-27T15:54:07+01:00</time>
      </trkpt>
      <trkpt lat="44.02294" lon="5.93241">
        <ele>406</ele>
        <time>2024-11-27T15:54:20+01:00</time>
      </trkpt>
      <trkpt lat="44.02301" lon="5.93252">
        <ele>406.5</ele>
        <time>2024-11-27T15:54:29+01:00</time>
      </trkpt>
      <trkpt lat="44.02308" lon="5.93263">
        <ele>406.6</ele>
        <time>2024-11-27T15:54:37+01:00</time>
      </trkpt>
      <trkpt lat="44.02314" lon="5.93274">
        <ele>406.5</ele>
        <time>2024-11-27T15:54:46+01:00</time>
      </trkpt>
      <trkpt lat="44.0232" lon="5.93285">
        <ele>406.4</ele>
        <time>2024-11-27T15:54:55+01:00</time>
      </trkpt>
      <trkpt lat="44.02327" lon="5.93296">
        <ele>406.3</ele>
        <time>2024-11-27T15:55:05+01:00</time>
      </trkpt>
      <trkpt lat="44.02334" lon="5.93306">
        <ele>406</ele>
        <time>2024-11-27T15:55:13+01:00</time>
      </trkpt>
      <trkpt lat="44.02341" lon="5.93317">
        <ele>405.3</ele>
        <time>2024-11-27T15:55:23+01:00</time>
      </trkpt>
      <trkpt lat="44.02349" lon="5.93327">
        <ele>404.1</ele>
        <time>2024-11-27T15:55:32+01:00</time>
      </trkpt>
      <trkpt lat="44.02355" lon="5.93336">
        <ele>403.1</ele>
        <time>2024-11-27T15:55:41+01:00</time>
      </trkpt>
      <trkpt lat="44.02364" lon="5.93346">
        <ele>402.5</ele>
        <time>2024-11-27T15:55:54+01:00</time>
      </trkpt>
      <trkpt lat="44.02371" lon="5.93356">
        <ele>402.2</ele>
        <time>2024-11-27T15:56:05+01:00</time>
      </trkpt>
      <trkpt lat="44.02378" lon="5.93365">
        <ele>401.9</ele>
        <time>2024-11-27T15:56:15+01:00</time>
      </trkpt>
      <trkpt lat="44.02386" lon="5.93373">
        <ele>402</ele>
        <time>2024-11-27T15:56:24+01:00</time>
      </trkpt>
      <trkpt lat="44.02394" lon="5.93378">
        <ele>402.4</ele>
        <time>2024-11-27T15:56:33+01:00</time>
      </trkpt>
      <trkpt lat="44.02404" lon="5.93382">
        <ele>403.3</ele>
        <time>2024-11-27T15:56:42+01:00</time>
      </trkpt>
      <trkpt lat="44.02413" lon="5.93387">
        <ele>404.4</ele>
        <time>2024-11-27T15:56:51+01:00</time>
      </trkpt>
      <trkpt lat="44.0242" lon="5.93397">
        <ele>405.6</ele>
        <time>2024-11-27T15:56:59+01:00</time>
      </trkpt>
      <trkpt lat="44.02426" lon="5.93405">
        <ele>406.4</ele>
        <time>2024-11-27T15:57:09+01:00</time>
      </trkpt>
      <trkpt lat="44.02435" lon="5.93416">
        <ele>407.3</ele>
        <time>2024-11-27T15:57:21+01:00</time>
      </trkpt>
      <trkpt lat="44.02443" lon="5.93427">
        <ele>408.3</ele>
        <time>2024-11-27T15:57:33+01:00</time>
      </trkpt>
      <trkpt lat="44.02451" lon="5.93436">
        <ele>408.8</ele>
        <time>2024-11-27T15:57:42+01:00</time>
      </trkpt>
      <trkpt lat="44.02458" lon="5.93445">
        <ele>409</ele>
        <time>2024-11-27T15:57:51+01:00</time>
      </trkpt>
      <trkpt lat="44.02461" lon="5.93456">
        <ele>409.1</ele>
        <time>2024-11-27T15:58:03+01:00</time>
      </trkpt>
    </trkseg>
  </trk>
</gpx>